M I D A S
Marine Information and Data Acquisition System
Tripno 1005 of the Zeeleeuw from 2005-09-08 06:19:00 to 2005-09-08 12:46:35
Back to CruiseResearch ActivitiesStationsMapUnderway DataData graphs

EquipmentUnitsComment
TimeDGPSUTC
LatitudeDGPSDM.mWGS84
LongitudeDGPSDM.mWGS84
TemperatureSBE03/SBE38deg celciusITS90
ConductivitySBE21S/mITS90
SalinitySBE21 Practical Salinity Units
ChlorophylAChelsea fluorimeterg/lCalibrated in Aceton
Missing or incorrect values are displayed as -999
Sea surface data collected by the RV Zeeleeuw from 2005-09-08 06:14:50 to 2005-09-08 13:52:24
                                                                                    Next 1000 lines
Time Latitude Longitude Temperature Conductivity Salinity ChlorophylA
2005-09-08 06:15:00 51°13.597 2°56.09 -999 4.320775 28.06113 -0.477864
2005-09-08 06:15:05 51°13.597 2°56.09 -999 4.320775 28.060677 -0.477864
2005-09-08 06:15:10 51°13.597 2°56.089 -999 4.320671 28.060832 -0.477864
2005-09-08 06:15:15 51°13.597 2°56.089 -999 4.320671 28.060832 -0.477864
2005-09-08 06:15:20 51°13.597 2°56.089 -999 4.320671 28.060379 -0.477864
2005-09-08 06:15:25 51°13.596 2°56.089 -999 4.320567 28.060986 -0.444155
2005-09-08 06:15:30 51°13.596 2°56.09 -999 4.320567 28.060986 -0.444155
2005-09-08 06:15:36 51°13.594 2°56.091 -999 4.320567 28.060986 -0.477864
2005-09-08 06:15:40 51°13.593 2°56.093 -999 4.320464 28.060236 -0.477864
2005-09-08 06:15:45 51°13.592 2°56.095 -999 4.320464 28.061594 -0.444155
2005-09-08 06:15:50 51°13.59 2°56.098 -999 4.320464 28.061141 -0.477864
2005-09-08 06:15:54 51°13.588 2°56.1 -999 4.32036 28.060843 -0.477864
2005-09-08 06:16:01 51°13.585 2°56.105 -999 4.32036 28.060843 -0.477864
2005-09-08 06:16:06 51°13.583 2°56.108 -999 4.32036 28.061296 -0.477864
2005-09-08 06:16:10 51°13.581 2°56.112 -999 4.320256 28.060998 -0.477864
2005-09-08 06:16:15 51°13.578 2°56.117 -999 4.320256 28.06145 -0.444155
2005-09-08 06:16:20 51°13.576 2°56.122 -999 4.320153 28.0607 -0.477864
2005-09-08 06:16:25 51°13.574 2°56.127 -999 4.320153 28.061605 -0.477864
2005-09-08 06:16:30 51°13.571 2°56.132 -999 4.320153 28.061605 -0.477864
2005-09-08 06:16:36 51°13.569 2°56.137 -999 4.320049 28.060854 -0.477864
2005-09-08 06:16:40 51°13.567 2°56.142 -999 4.320049 28.060854 -0.477864
2005-09-08 06:16:46 51°13.565 2°56.147 -999 4.320049 28.06176 -0.444155
2005-09-08 06:16:50 51°13.563 2°56.152 -999 4.319945 28.061009 -0.444155
2005-09-08 06:16:56 51°13.56 2°56.159 -999 4.319945 28.061462 -0.477864
2005-09-08 06:17:00 51°13.557 2°56.164 -999 4.319945 28.061462 -0.477864
2005-09-08 06:17:05 51°13.554 2°56.169 -999 4.319841 28.060258 -0.477864
2005-09-08 06:17:10 51°13.551 2°56.174 -999 4.319842 28.061164 -0.477864
2005-09-08 06:17:15 51°13.547 2°56.178 -999 4.319738 28.05996 -0.477864
2005-09-08 06:17:20 51°13.543 2°56.181 -999 4.319738 28.060866 -0.477864
2005-09-08 06:17:25 51°13.54 2°56.184 -999 4.319634 28.061473 -0.477864
2005-09-08 06:17:30 51°13.537 2°56.186 -999 4.319634 28.061473 -0.477864
2005-09-08 06:17:35 51°13.535 2°56.188 -999 4.319634 28.06102 -0.477864
2005-09-08 06:17:41 51°13.533 2°56.189 -999 4.319634 28.062379 -0.477864
2005-09-08 06:17:45 51°13.533 2°56.189 -999 4.31953 28.061628 -0.444155
2005-09-08 06:17:50 51°13.533 2°56.189 -999 4.319427 28.061783 -0.477864
2005-09-08 06:17:55 51°13.534 2°56.189 -999 4.319427 28.06133 -0.477864
2005-09-08 06:18:00 51°13.536 2°56.189 -999 4.319427 28.06133 -0.477864
2005-09-08 06:18:05 51°13.539 2°56.189 -999 4.319427 28.061783 -0.477864
2005-09-08 06:18:10 51°13.541 2°56.188 -999 4.319323 28.061032 -0.477864
2005-09-08 06:18:16 51°13.543 2°56.188 -999 4.319323 28.061937 -0.444155
2005-09-08 06:18:20 51°13.544 2°56.188 -999 4.319219 28.060734 -0.477864
2005-09-08 06:18:26 51°13.544 2°56.188 -999 4.319116 28.060436 -0.477864
2005-09-08 06:18:31 51°13.543 2°56.188 -999 4.319116 28.060436 -0.477864
2005-09-08 06:18:36 51°13.541 2°56.187 -999 4.319116 28.060436 -0.477864
2005-09-08 06:18:40 51°13.539 2°56.187 -999 4.319012 28.06059 -0.477864
2005-09-08 06:18:46 51°13.537 2°56.185 -999 4.319012 28.060138 -0.477864
2005-09-08 06:18:50 51°13.536 2°56.184 -999 4.319012 28.061496 -0.477864
2005-09-08 06:18:56 51°13.534 2°56.184 -999 4.319012 28.061949 -0.477864
2005-09-08 06:19:00 51°13.534 2°56.183 -999 4.319012 28.061949 -0.477864
2005-09-08 06:19:06 51°13.533 2°56.184 -999 4.318908 28.061198 -0.477864
2005-09-08 06:19:10 51°13.534 2°56.184 -999 4.318908 28.062104 -0.477864
2005-09-08 06:19:15 51°13.535 2°56.185 -999 4.318804 28.0609 -0.477864
2005-09-08 06:19:20 51°13.536 2°56.186 -999 4.318804 28.061806 -0.444155
2005-09-08 06:19:26 51°13.537 2°56.188 -999 4.318701 28.060149 -0.477864
2005-09-08 06:19:30 51°13.538 2°56.19 -999 4.318701 28.060149 -0.477864
2005-09-08 06:19:36 51°13.54 2°56.192 -999 4.318701 28.061055 -0.477864
2005-09-08 06:19:41 51°13.542 2°56.195 -999 4.318597 28.060304 -0.477864
2005-09-08 06:19:46 51°13.544 2°56.197 -999 4.318597 28.060304 -0.477864
2005-09-08 06:19:51 51°13.546 2°56.199 -999 4.318493 28.060006 -0.477864
2005-09-08 06:19:56 51°13.548 2°56.201 -999 4.318493 28.060459 -0.477864
2005-09-08 06:20:00 51°13.548 2°56.201 -999 4.318493 28.060459 -0.477864
2005-09-08 06:20:06 51°13.548 2°56.2 -999 4.318493 28.061365 -0.444155
2005-09-08 06:20:11 51°13.548 2°56.199 -999 4.31839 28.060614 -0.477864
2005-09-08 06:20:16 51°13.548 2°56.197 -999 4.31839 28.061067 -0.444155
2005-09-08 06:20:21 51°13.547 2°56.195 -999 4.318286 28.061221 -0.477864
2005-09-08 06:20:26 51°13.546 2°56.192 -999 4.318286 28.060768 -0.477864
2005-09-08 06:20:30 51°13.545 2°56.188 -999 4.318286 28.060768 -0.477864
2005-09-08 06:20:36 51°13.544 2°56.181 -999 4.318182 28.060923 -0.477864
2005-09-08 06:20:40 51°13.544 2°56.176 -999 4.318182 28.060923 -0.477864
2005-09-08 06:20:45 51°13.544 2°56.169 -999 4.318182 28.061376 -0.477864
2005-09-08 06:20:50 51°13.544 2°56.162 -999 4.318078 28.061531 -0.477864
2005-09-08 06:20:55 51°13.546 2°56.153 -999 4.317975 28.060327 -0.477864
2005-09-08 06:21:01 51°13.548 2°56.143 -999 4.317975 28.060327 -0.477864
2005-09-08 06:21:06 51°13.552 2°56.134 -999 4.317975 28.060327 -0.477864
2005-09-08 06:21:10 51°13.555 2°56.126 -999 4.317871 28.061388 -0.477864
2005-09-08 06:21:15 51°13.56 2°56.115 -999 4.317871 28.061388 -0.477864
2005-09-08 06:21:20 51°13.564 2°56.103 -999 4.317871 28.061388 -0.477864
2005-09-08 06:21:24 51°13.568 2°56.094 -999 4.317767 28.061543 -0.477864
2005-09-08 06:21:30 51°13.574 2°56.08 -999 4.317767 28.061543 -0.477864
2005-09-08 06:21:35 51°13.58 2°56.066 -999 4.317767 28.06109 -0.477864
2005-09-08 06:21:40 51°13.586 2°56.053 -999 4.317664 28.060339 -0.477864
2005-09-08 06:21:46 51°13.592 2°56.037 -999 4.317664 28.061245 -0.477864
2005-09-08 06:21:50 51°13.597 2°56.026 -999 4.31756 28.060494 -0.444155
2005-09-08 06:21:56 51°13.605 2°56.009 -999 4.31756 28.060494 -0.477864
2005-09-08 06:22:00 51°13.61 2°55.995 -999 4.31756 28.060494 -0.477864
2005-09-08 06:22:05 51°13.616 2°55.98 -999 4.31756 28.0614 -0.444155
2005-09-08 06:22:10 51°13.623 2°55.964 -999 4.317456 28.061102 -0.444155
2005-09-08 06:22:15 51°13.629 2°55.949 -999 4.317456 28.061555 -0.477864
2005-09-08 06:22:20 51°13.635 2°55.934 -999 4.317352 28.061257 -0.477864
2005-09-08 06:22:25 51°13.641 2°55.921 -999 4.317352 28.06171 -0.477864
2005-09-08 06:22:30 51°13.647 2°55.906 -999 4.317352 28.06171 -0.477864
2005-09-08 06:22:36 51°13.655 2°55.888 -999 4.317249 28.061412 -0.477864
2005-09-08 06:22:40 51°13.661 2°55.875 -999 4.317249 28.060959 -0.477864
2005-09-08 06:22:44 51°13.666 2°55.863 -999 4.317145 28.060661 -0.477864
2005-09-08 06:22:50 51°13.673 2°55.848 -999 4.317145 28.061567 -0.477864
2005-09-08 06:22:55 51°13.68 2°55.832 -999 4.317041 28.060363 -0.444155
2005-09-08 06:23:00 51°13.687 2°55.818 -999 4.317041 28.060363 -0.444155
2005-09-08 06:23:05 51°13.693 2°55.805 -999 4.317041 28.060363 -0.444155
2005-09-08 06:23:10 51°13.7 2°55.791 -999 4.316938 28.060518 -0.477864
2005-09-08 06:23:15 51°13.708 2°55.777 -999 4.316938 28.060971 -0.444155
2005-09-08 06:23:20 51°13.715 2°55.764 -999 4.316834 28.06022 -0.477864
2005-09-08 06:23:25 51°13.723 2°55.751 -999 4.316834 28.060673 -0.477864
2005-09-08 06:23:30 51°13.73 2°55.74 -999 4.316834 28.060673 -0.477864
2005-09-08 06:23:35 51°13.739 2°55.727 -999 4.31673 28.060375 -0.477864
2005-09-08 06:23:40 51°13.748 2°55.715 -999 4.31673 28.060828 -0.477864
2005-09-08 06:23:46 51°13.757 2°55.703 -999 4.31673 28.061281 -0.477864
2005-09-08 06:23:50 51°13.765 2°55.693 -999 4.316626 28.060077 -0.477864
2005-09-08 06:23:55 51°13.774 2°55.683 -999 4.316626 28.06053 -0.477864
2005-09-08 06:24:00 51°13.783 2°55.673 -999 4.316626 28.06053 -0.477864
2005-09-08 06:24:05 51°13.792 2°55.664 -999 4.316523 28.059778 -0.477864
2005-09-08 06:24:10 51°13.802 2°55.654 -999 4.316523 28.060685 -0.477864
2005-09-08 06:24:15 51°13.812 2°55.646 -999 4.316419 28.059934 -0.477864
2005-09-08 06:24:20 51°13.822 2°55.637 -999 4.316419 28.060387 -0.477864
2005-09-08 06:24:25 51°13.831 2°55.629 -999 4.316315 28.060089 -0.444155
2005-09-08 06:24:30 51°13.842 2°55.621 -999 4.316315 28.060089 -0.444155
2005-09-08 06:24:36 51°13.855 2°55.611 -999 4.316315 28.060089 -0.477864
2005-09-08 06:24:40 51°13.864 2°55.604 -999 4.316212 28.060244 -0.444155
2005-09-08 06:24:44 51°13.873 2°55.597 -999 4.316212 28.060697 -0.477864
2005-09-08 06:24:50 51°13.886 2°55.587 -999 4.316212 28.060697 -0.477864
2005-09-08 06:24:55 51°13.897 2°55.579 -999 4.316108 28.060399 -0.477864
2005-09-08 06:25:00 51°13.908 2°55.571 -999 4.316108 28.060399 -0.477864
2005-09-08 06:25:05 51°13.918 2°55.563 -999 4.316108 28.060399 -0.477864
2005-09-08 06:25:10 51°13.929 2°55.556 -999 4.316004 28.060101 -0.477864
2005-09-08 06:25:15 51°13.942 2°55.547 -999 4.3159 28.059803 -0.477864
2005-09-08 06:25:21 51°13.954 2°55.537 -999 4.315901 28.060709 -0.477864
2005-09-08 06:25:26 51°13.966 2°55.529 -999 4.315901 28.061162 -0.477864
2005-09-08 06:25:30 51°13.977 2°55.52 -999 4.315901 28.061162 -0.477864
2005-09-08 06:25:35 51°13.989 2°55.511 -999 4.315797 28.060864 -0.477864
2005-09-08 06:25:40 51°14 2°55.503 -999 4.315693 28.060113 -0.477864
2005-09-08 06:25:44 51°14.009 2°55.496 -999 4.315693 28.060113 -0.477864
2005-09-08 06:25:50 51°14.022 2°55.488 -999 4.315693 28.060113 -0.477864
2005-09-08 06:25:55 51°14.034 2°55.48 -999 4.315589 28.059815 -0.477864
2005-09-08 06:26:00 51°14.045 2°55.473 -999 4.315589 28.059815 -0.477864
2005-09-08 06:26:05 51°14.055 2°55.466 -999 4.315589 28.059815 -0.477864
2005-09-08 06:26:10 51°14.066 2°55.459 -999 4.315486 28.059517 -0.477864
2005-09-08 06:26:15 51°14.078 2°55.45 -999 4.315486 28.05997 -0.477864
2005-09-08 06:26:20 51°14.09 2°55.443 -999 4.315486 28.05997 -0.477864
2005-09-08 06:26:24 51°14.099 2°55.436 -999 4.315382 28.060125 -0.444155
2005-09-08 06:26:30 51°14.112 2°55.426 -999 4.315382 28.060125 -0.444155
2005-09-08 06:26:36 51°14.125 2°55.416 -999 4.315278 28.059827 -0.444155
2005-09-08 06:26:40 51°14.135 2°55.408 -999 4.315278 28.059827 -0.444155
2005-09-08 06:26:44 51°14.144 2°55.4 -999 4.315278 28.060734 -0.477864
2005-09-08 06:26:50 51°14.156 2°55.389 -999 4.315175 28.060436 -0.444155
2005-09-08 06:26:55 51°14.168 2°55.376 -999 4.315175 28.060436 -0.477864
2005-09-08 06:27:00 51°14.179 2°55.364 -999 4.315175 28.060436 -0.477864
2005-09-08 06:27:05 51°14.188 2°55.353 -999 4.315071 28.060137 -0.477864
2005-09-08 06:27:10 51°14.199 2°55.34 -999 4.315071 28.060137 -0.477864
2005-09-08 06:27:15 51°14.209 2°55.324 -999 4.314967 28.059839 -0.444155
2005-09-08 06:27:20 51°14.219 2°55.31 -999 4.314967 28.059839 -0.477864
2005-09-08 06:27:24 51°14.226 2°55.297 -999 4.314967 28.060293 -0.477864
2005-09-08 06:27:30 51°14.236 2°55.28 -999 4.314967 28.060293 -0.477864
2005-09-08 06:27:35 51°14.245 2°55.262 -999 4.314863 28.059994 -0.477864
2005-09-08 06:27:40 51°14.253 2°55.246 -999 4.314863 28.059994 -0.477864
2005-09-08 06:27:44 51°14.26 2°55.232 -999 4.31476 28.059243 -0.477864
2005-09-08 06:27:50 51°14.27 2°55.211 -999 4.31476 28.059696 -0.477864
2005-09-08 06:27:55 51°14.278 2°55.194 -999 4.31476 28.06015 -0.477864
2005-09-08 06:28:00 51°14.287 2°55.176 -999 4.31476 28.06015 -0.477864
2005-09-08 06:28:06 51°14.296 2°55.156 -999 4.314656 28.059398 -0.477864
2005-09-08 06:28:10 51°14.303 2°55.142 -999 4.314656 28.059852 -0.477864
2005-09-08 06:28:15 51°14.312 2°55.122 -999 4.314552 28.059553 -0.477864
2005-09-08 06:28:20 51°14.32 2°55.103 -999 4.314552 28.059553 -0.477864
2005-09-08 06:28:26 51°14.33 2°55.083 -999 4.314552 28.060007 -0.477864
2005-09-08 06:28:30 51°14.337 2°55.068 -999 4.314552 28.060007 -0.477864
2005-09-08 06:28:34 51°14.345 2°55.051 -999 4.314449 28.059255 -0.477864
2005-09-08 06:28:40 51°14.356 2°55.029 -999 4.314449 28.059709 -0.477864
2005-09-08 06:28:44 51°14.363 2°55.014 -999 4.314345 28.058504 -0.477864
2005-09-08 06:28:50 51°14.373 2°54.994 -999 4.314345 28.058957 -0.477864
2005-09-08 06:28:54 51°14.381 2°54.979 -999 4.314345 28.058957 -0.477864
2005-09-08 06:29:00 51°14.394 2°54.955 -999 4.314345 28.058957 -0.477864
2005-09-08 06:29:06 51°14.406 2°54.935 -999 4.314241 28.058206 -0.477864
2005-09-08 06:29:10 51°14.416 2°54.921 -999 4.314241 28.058659 -0.477864
2005-09-08 06:29:16 51°14.43 2°54.9 -999 4.314137 28.058361 -0.477864
2005-09-08 06:29:20 51°14.442 2°54.885 -999 4.314137 28.058814 -0.477864
2005-09-08 06:29:24 51°14.453 2°54.872 -999 4.314034 28.058516 -0.477864
2005-09-08 06:29:30 51°14.468 2°54.854 -999 4.314034 28.058516 -0.477864
2005-09-08 06:29:36 51°14.485 2°54.835 -999 4.314034 28.05897 -0.477864
2005-09-08 06:29:40 51°14.498 2°54.82 -999 4.314034 28.059877 -0.477864
2005-09-08 06:29:44 51°14.509 2°54.807 -999 4.31393 28.059125 -0.477864
2005-09-08 06:29:50 51°14.527 2°54.788 -999 4.31393 28.059125 -0.477864
2005-09-08 06:29:55 51°14.542 2°54.772 -999 4.31393 28.059578 -0.477864
2005-09-08 06:30:00 51°14.557 2°54.756 -999 4.31393 28.059578 -0.477864
2005-09-08 06:30:06 51°14.574 2°54.739 -999 4.313826 28.058373 -0.477864
2005-09-08 06:30:10 51°14.586 2°54.728 -999 4.313826 28.058373 -0.477864
2005-09-08 06:30:16 51°14.605 2°54.71 -999 4.313826 28.058827 -0.477864
2005-09-08 06:30:20 51°14.619 2°54.698 -999 4.313723 28.058982 -0.477864
2005-09-08 06:30:26 51°14.636 2°54.682 -999 4.313723 28.058982 -0.444155
2005-09-08 06:30:30 51°14.649 2°54.671 -999 4.313723 28.058982 -0.444155
2005-09-08 06:30:35 51°14.667 2°54.657 -999 4.313619 28.058684 -0.477864
2005-09-08 06:30:40 51°14.683 2°54.644 -999 4.313619 28.058684 -0.477864
2005-09-08 06:30:46 51°14.701 2°54.629 -999 4.313619 28.059137 -0.477864
2005-09-08 06:30:50 51°14.715 2°54.617 -999 4.313515 28.058839 -0.444155
2005-09-08 06:30:55 51°14.731 2°54.603 -999 4.313515 28.059746 -0.477864
2005-09-08 06:31:00 51°14.747 2°54.589 -999 4.313515 28.059746 -0.477864
2005-09-08 06:31:05 51°14.762 2°54.576 -999 4.313515 28.059746 -0.477864
2005-09-08 06:31:10 51°14.779 2°54.561 -999 4.313411 28.058995 -0.477864
2005-09-08 06:31:15 51°14.795 2°54.547 -999 4.313411 28.058541 -0.477864
2005-09-08 06:31:20 51°14.811 2°54.534 -999 4.313308 28.058243 -0.477864
2005-09-08 06:31:26 51°14.829 2°54.518 -999 4.313308 28.058696 -0.477864
2005-09-08 06:31:30 51°14.844 2°54.506 -999 4.313308 28.058696 -0.477864
2005-09-08 06:31:36 51°14.862 2°54.491 -999 4.313308 28.058696 -0.477864
2005-09-08 06:31:40 51°14.876 2°54.479 -999 4.313204 28.057945 -0.477864
2005-09-08 06:31:46 51°14.894 2°54.464 -999 4.313204 28.057945 -0.477864
2005-09-08 06:31:50 51°14.907 2°54.453 -999 4.313204 28.058852 -0.477864
2005-09-08 06:31:56 51°14.927 2°54.438 -999 4.3131 28.058554 -0.477864
2005-09-08 06:32:00 51°14.941 2°54.426 -999 4.3131 28.058554 -0.477864
2005-09-08 06:32:05 51°14.956 2°54.414 -999 4.3131 28.059007 -0.444155
2005-09-08 06:32:10 51°14.973 2°54.399 -999 4.312997 28.058256 -0.444155
2005-09-08 06:32:15 51°14.989 2°54.385 -999 4.312997 28.058709 -0.477864
2005-09-08 06:32:21 51°15.007 2°54.369 -999 4.312997 28.059163 -0.477864
2005-09-08 06:32:26 51°15.023 2°54.356 -999 4.312997 28.059163 -0.477864
2005-09-08 06:32:30 51°15.037 2°54.342 -999 4.312997 28.059163 -0.477864
2005-09-08 06:32:35 51°15.053 2°54.328 -999 4.312893 28.058411 -0.477864
2005-09-08 06:32:40 51°15.069 2°54.314 -999 4.312893 28.058411 -0.477864
2005-09-08 06:32:46 51°15.087 2°54.298 -999 4.312893 28.058865 -0.477864
2005-09-08 06:32:50 51°15.1 2°54.287 -999 4.312789 28.058113 -0.444155
2005-09-08 06:32:55 51°15.117 2°54.271 -999 4.312789 28.058566 -0.477864
2005-09-08 06:33:00 51°15.134 2°54.258 -999 4.312789 28.058566 -0.477864
2005-09-08 06:33:05 51°15.149 2°54.246 -999 4.312789 28.05902 -0.477864
2005-09-08 06:33:10 51°15.166 2°54.233 -999 4.312685 28.058722 -0.444155
2005-09-08 06:33:15 51°15.184 2°54.219 -999 4.312685 28.058722 -0.477864
2005-09-08 06:33:20 51°15.201 2°54.205 -999 4.312685 28.059175 -0.477864
2005-09-08 06:33:24 51°15.215 2°54.194 -999 4.312582 28.058877 -0.477864
2005-09-08 06:33:30 51°15.235 2°54.177 -999 4.312582 28.058877 -0.477864
2005-09-08 06:33:36 51°15.253 2°54.161 -999 4.312582 28.058877 -0.477864
2005-09-08 06:33:40 51°15.267 2°54.147 -999 4.312582 28.059785 -0.477864
2005-09-08 06:33:44 51°15.28 2°54.134 -999 4.312478 28.059033 -0.477864
2005-09-08 06:33:50 51°15.298 2°54.117 -999 4.312478 28.059033 -0.444155
2005-09-08 06:33:55 51°15.315 2°54.099 -999 4.312478 28.059486 -0.477864
2005-09-08 06:34:00 51°15.331 2°54.083 -999 4.312478 28.059486 -0.477864
2005-09-08 06:34:06 51°15.349 2°54.066 -999 4.312374 28.058735 -0.444155
2005-09-08 06:34:10 51°15.363 2°54.051 -999 4.312374 28.058735 -0.477864
2005-09-08 06:34:15 51°15.379 2°54.036 -999 4.312271 28.058436 -0.477864
2005-09-08 06:34:20 51°15.396 2°54.021 -999 4.312271 28.05889 -0.477864
2005-09-08 06:34:26 51°15.414 2°54.005 -999 4.312271 28.05889 -0.477864
2005-09-08 06:34:30 51°15.429 2°53.992 -999 4.312271 28.05889 -0.477864
2005-09-08 06:34:35 51°15.445 2°53.978 -999 4.312167 28.058592 -0.477864
2005-09-08 06:34:40 51°15.461 2°53.963 -999 4.312167 28.059046 -0.444155
2005-09-08 06:34:45 51°15.476 2°53.949 -999 4.312167 28.059499 -0.477864
2005-09-08 06:34:50 51°15.492 2°53.935 -999 4.312167 28.059499 -0.477864
2005-09-08 06:34:55 51°15.51 2°53.919 -999 4.312063 28.059201 -0.477864
2005-09-08 06:35:00 51°15.526 2°53.904 -999 4.312063 28.059201 -0.477864
2005-09-08 06:35:05 51°15.542 2°53.888 -999 4.312063 28.059655 -0.477864
2005-09-08 06:35:10 51°15.556 2°53.874 -999 4.31196 28.058903 -0.477864
2005-09-08 06:35:15 51°15.574 2°53.857 -999 4.31196 28.058903 -0.477864
2005-09-08 06:35:20 51°15.59 2°53.843 -999 4.31196 28.059357 -0.477864
2005-09-08 06:35:24 51°15.603 2°53.831 -999 4.311856 28.058605 -0.477864
2005-09-08 06:35:30 51°15.621 2°53.816 -999 4.311856 28.058605 -0.477864
2005-09-08 06:35:36 51°15.641 2°53.799 -999 4.311856 28.058605 -0.477864
2005-09-08 06:35:40 51°15.655 2°53.787 -999 4.311856 28.059059 -0.477864
2005-09-08 06:35:45 51°15.672 2°53.773 -999 4.311856 28.059512 -0.477864
2005-09-08 06:35:50 51°15.687 2°53.76 -999 4.311752 28.059214 -0.477864
2005-09-08 06:35:55 51°15.704 2°53.745 -999 4.311752 28.059668 -0.477864
2005-09-08 06:36:00 51°15.721 2°53.73 -999 4.311752 28.059668 -0.477864
2005-09-08 06:36:04 51°15.734 2°53.719 -999 4.311648 28.058916 -0.477864
2005-09-08 06:36:10 51°15.752 2°53.703 -999 4.311648 28.05937 -0.477864
2005-09-08 06:36:16 51°15.771 2°53.687 -999 4.311648 28.05937 -0.477864
2005-09-08 06:36:20 51°15.786 2°53.674 -999 4.311545 28.059072 -0.477864
2005-09-08 06:36:25 51°15.802 2°53.66 -999 4.311545 28.059072 -0.477864
2005-09-08 06:36:30 51°15.817 2°53.648 -999 4.311545 28.059072 -0.477864
2005-09-08 06:36:36 51°15.836 2°53.631 -999 4.311441 28.058319 -0.477864
2005-09-08 06:36:40 51°15.851 2°53.618 -999 4.311441 28.058773 -0.477864
2005-09-08 06:36:44 51°15.864 2°53.606 -999 4.311441 28.059227 -0.477864
2005-09-08 06:36:50 51°15.882 2°53.59 -999 4.311441 28.059227 -0.477864
2005-09-08 06:36:56 51°15.901 2°53.573 -999 4.311441 28.059681 -0.444155
2005-09-08 06:37:00 51°15.916 2°53.561 -999 4.311441 28.059681 -0.444155
2005-09-08 06:37:06 51°15.934 2°53.545 -999 4.311337 28.058929 -0.477864
2005-09-08 06:37:10 51°15.947 2°53.534 -999 4.311337 28.059383 -0.477864
2005-09-08 06:37:16 51°15.967 2°53.518 -999 4.311337 28.059837 -0.477864
2005-09-08 06:37:20 51°15.982 2°53.506 -999 4.311234 28.059538 -0.477864
2005-09-08 06:37:26 51°16 2°53.491 -999 4.311234 28.059538 -0.477864
2005-09-08 06:37:30 51°16.013 2°53.479 -999 4.311234 28.059538 -0.477864
2005-09-08 06:37:35 51°16.031 2°53.463 -999 4.31113 28.05924 -0.477864
2005-09-08 06:37:40 51°16.047 2°53.449 -999 4.31113 28.058786 -0.477864
2005-09-08 06:37:45 51°16.062 2°53.436 -999 4.31113 28.059694 -0.477864
2005-09-08 06:37:50 51°16.079 2°53.422 -999 4.31113 28.059694 -0.477864
2005-09-08 06:37:55 51°16.097 2°53.407 -999 4.311026 28.058942 -0.477864
2005-09-08 06:38:00 51°16.114 2°53.394 -999 4.311026 28.058942 -0.477864
2005-09-08 06:38:05 51°16.131 2°53.38 -999 4.311026 28.059396 -0.477864
2005-09-08 06:38:10 51°16.148 2°53.366 -999 4.310922 28.058644 -0.477864
2005-09-08 06:38:16 51°16.166 2°53.351 -999 4.310922 28.059098 -0.477864
2005-09-08 06:38:20 51°16.181 2°53.338 -999 4.310922 28.059552 -0.444155
2005-09-08 06:38:24 51°16.194 2°53.327 -999 4.310922 28.059552 -0.477864
2005-09-08 06:38:30 51°16.213 2°53.311 -999 4.310922 28.059552 -0.477864
2005-09-08 06:38:35 51°16.231 2°53.296 -999 4.310819 28.059253 -0.477864
2005-09-08 06:38:40 51°16.247 2°53.281 -999 4.310819 28.059707 -0.477864
2005-09-08 06:38:44 51°16.26 2°53.27 -999 4.310819 28.059707 -0.477864
2005-09-08 06:38:50 51°16.279 2°53.254 -999 4.310715 28.058955 -0.477864
2005-09-08 06:38:55 51°16.297 2°53.238 -999 4.310715 28.059409 -0.477864
2005-09-08 06:39:00 51°16.314 2°53.225 -999 4.310715 28.059409 -0.477864
2005-09-08 06:39:06 51°16.333 2°53.209 -999 4.310611 28.058657 -0.477864
2005-09-08 06:39:10 51°16.346 2°53.198 -999 4.310611 28.059111 -0.477864
2005-09-08 06:39:16 51°16.366 2°53.182 -999 4.310611 28.059565 -0.477864
2005-09-08 06:39:20 51°16.381 2°53.169 -999 4.310611 28.060019 -0.444155
2005-09-08 06:39:26 51°16.4 2°53.154 -999 4.310508 28.059267 -0.477864
2005-09-08 06:39:30 51°16.414 2°53.143 -999 4.310508 28.059267 -0.477864
2005-09-08 06:39:36 51°16.434 2°53.126 -999 4.310508 28.059267 -0.477864
2005-09-08 06:39:40 51°16.449 2°53.114 -999 4.310508 28.059721 -0.477864
2005-09-08 06:39:45 51°16.466 2°53.1 -999 4.310404 28.059422 -0.477864
2005-09-08 06:39:50 51°16.481 2°53.087 -999 4.310404 28.059422 -0.477864
2005-09-08 06:39:55 51°16.5 2°53.072 -999 4.310404 28.059876 -0.477864
2005-09-08 06:40:00 51°16.517 2°53.058 -999 4.310404 28.059876 -0.477864
2005-09-08 06:40:04 51°16.53 2°53.047 -999 4.3103 28.059578 -0.477864
2005-09-08 06:40:10 51°16.548 2°53.031 -999 4.3103 28.059578 -0.477864
2005-09-08 06:40:15 51°16.567 2°53.016 -999 4.3103 28.060032 -0.477864
2005-09-08 06:40:20 51°16.584 2°53.002 -999 4.310196 28.05928 -0.477864
2005-09-08 06:40:25 51°16.599 2°52.989 -999 4.310196 28.059734 -0.477864
2005-09-08 06:40:31 51°16.619 2°52.972 -999 4.310196 28.059734 -0.477864
2005-09-08 06:40:36 51°16.636 2°52.958 -999 4.310196 28.059734 -0.477864
2005-09-08 06:40:40 51°16.65 2°52.945 -999 4.310093 28.059436 -0.477864
2005-09-08 06:40:44 51°16.664 2°52.934 -999 4.310093 28.059436 -0.477864
2005-09-08 06:40:50 51°16.682 2°52.918 -999 4.310093 28.05989 -0.477864
2005-09-08 06:40:55 51°16.7 2°52.902 -999 4.309989 28.059138 -0.444155
2005-09-08 06:41:01 51°16.719 2°52.887 -999 4.309989 28.059138 -0.444155
2005-09-08 06:41:06 51°16.735 2°52.873 -999 4.309989 28.059592 -0.477864
2005-09-08 06:41:10 51°16.749 2°52.862 -999 4.309885 28.059293 -0.444155
2005-09-08 06:41:15 51°16.767 2°52.846 -999 4.309885 28.059293 -0.477864
2005-09-08 06:41:20 51°16.783 2°52.832 -999 4.309885 28.059747 -0.477864
2005-09-08 06:41:25 51°16.798 2°52.819 -999 4.309885 28.059747 -0.444155
2005-09-08 06:41:30 51°16.815 2°52.806 -999 4.309885 28.059747 -0.444155
2005-09-08 06:41:35 51°16.833 2°52.791 -999 4.309885 28.059747 -0.477864
2005-09-08 06:41:40 51°16.85 2°52.778 -999 4.309782 28.059449 -0.477864
2005-09-08 06:41:45 51°16.865 2°52.766 -999 4.309782 28.059449 -0.477864
2005-09-08 06:41:50 51°16.881 2°52.753 -999 4.309678 28.059151 -0.477864
2005-09-08 06:41:55 51°16.899 2°52.738 -999 4.309678 28.059605 -0.477864
2005-09-08 06:42:00 51°16.916 2°52.724 -999 4.309678 28.059605 -0.477864
2005-09-08 06:42:05 51°16.931 2°52.712 -999 4.309678 28.060059 -0.477864
2005-09-08 06:42:10 51°16.95 2°52.696 -999 4.309678 28.060059 -0.444155
2005-09-08 06:42:15 51°16.966 2°52.683 -999 4.309574 28.059761 -0.477864
2005-09-08 06:42:21 51°16.985 2°52.667 -999 4.309574 28.059761 -0.477864
2005-09-08 06:42:24 51°16.997 2°52.658 -999 4.309574 28.060215 -0.477864
2005-09-08 06:42:30 51°17.017 2°52.641 -999 4.309574 28.060215 -0.477864
2005-09-08 06:42:34 51°17.031 2°52.63 -999 4.309471 28.059463 -0.477864
2005-09-08 06:42:40 51°17.051 2°52.614 -999 4.309471 28.059917 -0.444155
2005-09-08 06:42:45 51°17.066 2°52.602 -999 4.309367 28.059164 -0.477864
2005-09-08 06:42:50 51°17.085 2°52.588 -999 4.309367 28.059619 -0.444155
2005-09-08 06:42:55 51°17.102 2°52.576 -999 4.309367 28.059619 -0.477864
2005-09-08 06:43:00 51°17.12 2°52.565 -999 4.309367 28.059619 -0.477864
2005-09-08 06:43:05 51°17.135 2°52.555 -999 4.309367 28.060073 -0.477864
2005-09-08 06:43:10 51°17.153 2°52.544 -999 4.309263 28.059775 -0.477864
2005-09-08 06:43:15 51°17.172 2°52.532 -999 4.309263 28.059775 -0.477864
2005-09-08 06:43:21 51°17.191 2°52.52 -999 4.309159 28.059476 -0.477864
2005-09-08 06:43:25 51°17.207 2°52.511 -999 4.309159 28.05993 -0.477864
2005-09-08 06:43:30 51°17.225 2°52.5 -999 4.309159 28.05993 -0.477864
2005-09-08 06:43:35 51°17.242 2°52.488 -999 4.309159 28.05993 -0.477864
2005-09-08 06:43:40 51°17.26 2°52.477 -999 4.309159 28.05993 -0.477864
2005-09-08 06:43:46 51°17.279 2°52.464 -999 4.309159 28.060385 -0.477864
2005-09-08 06:43:50 51°17.293 2°52.455 -999 4.309056 28.060086 -0.477864
2005-09-08 06:43:56 51°17.314 2°52.441 -999 4.309056 28.060086 -0.444155
2005-09-08 06:44:00 51°17.329 2°52.431 -999 4.309056 28.060086 -0.444155
2005-09-08 06:44:05 51°17.345 2°52.421 -999 4.308952 28.059334 -0.477864
2005-09-08 06:44:10 51°17.363 2°52.41 -999 4.308952 28.059788 -0.477864
2005-09-08 06:44:15 51°17.382 2°52.397 -999 4.308952 28.059788 -0.477864
2005-09-08 06:44:20 51°17.399 2°52.385 -999 4.308848 28.059944 -0.477864
2005-09-08 06:44:25 51°17.414 2°52.374 -999 4.308848 28.060398 -0.477864
2005-09-08 06:44:31 51°17.435 2°52.359 -999 4.308848 28.060398 -0.477864
2005-09-08 06:44:35 51°17.45 2°52.348 -999 4.308848 28.060398 -0.477864
2005-09-08 06:44:40 51°17.467 2°52.336 -999 4.308745 28.059646 -0.477864
2005-09-08 06:44:45 51°17.483 2°52.326 -999 4.308745 28.0601 -0.477864
2005-09-08 06:44:51 51°17.504 2°52.311 -999 4.308745 28.0601 -0.477864
2005-09-08 06:44:55 51°17.519 2°52.301 -999 4.308641 28.059802 -0.477864
2005-09-08 06:45:01 51°17.538 2°52.289 -999 4.308641 28.059802 -0.477864
2005-09-08 06:45:05 51°17.554 2°52.278 -999 4.308641 28.059802 -0.477864
2005-09-08 06:45:10 51°17.571 2°52.268 -999 4.308641 28.059802 -0.477864
2005-09-08 06:45:15 51°17.589 2°52.257 -999 4.308537 28.059504 -0.477864
2005-09-08 06:45:20 51°17.607 2°52.247 -999 4.308537 28.059504 -0.477864
2005-09-08 06:45:25 51°17.624 2°52.238 -999 4.308537 28.059958 -0.477864
2005-09-08 06:45:30 51°17.642 2°52.228 -999 4.308537 28.059958 -0.477864
2005-09-08 06:45:35 51°17.66 2°52.219 -999 4.308537 28.059958 -0.477864
2005-09-08 06:45:40 51°17.678 2°52.21 -999 4.308433 28.05966 -0.477864
2005-09-08 06:45:46 51°17.697 2°52.2 -999 4.308433 28.060114 -0.477864
2005-09-08 06:45:50 51°17.713 2°52.193 -999 4.30833 28.059361 -0.477864
2005-09-08 06:45:55 51°17.731 2°52.184 -999 4.30833 28.059816 -0.477864
2005-09-08 06:46:00 51°17.749 2°52.175 -999 4.30833 28.059816 -0.477864
2005-09-08 06:46:05 51°17.767 2°52.166 -999 4.30833 28.06027 -0.477864
2005-09-08 06:46:10 51°17.784 2°52.157 -999 4.30833 28.060724 -0.477864
2005-09-08 06:46:16 51°17.804 2°52.147 -999 4.308226 28.059972 -0.477864
2005-09-08 06:46:20 51°17.82 2°52.139 -999 4.308226 28.059972 -0.477864
2005-09-08 06:46:26 51°17.84 2°52.129 -999 4.308122 28.059673 -0.477864
2005-09-08 06:46:30 51°17.856 2°52.12 -999 4.308122 28.059673 -0.477864
2005-09-08 06:46:36 51°17.875 2°52.111 -999 4.308226 28.060426 -0.444155
2005-09-08 06:46:40 51°17.891 2°52.103 -999 4.308122 28.060128 -0.477864
2005-09-08 06:46:45 51°17.909 2°52.094 -999 4.308122 28.060128 -0.477864
2005-09-08 06:46:50 51°17.925 2°52.087 -999 4.308019 28.05983 -0.444155
2005-09-08 06:46:55 51°17.944 2°52.077 -999 4.308019 28.060284 -0.477864
2005-09-08 06:47:00 51°17.962 2°52.068 -999 4.308019 28.060284 -0.477864
2005-09-08 06:47:05 51°17.979 2°52.059 -999 4.308019 28.060284 -0.477864
2005-09-08 06:47:10 51°17.995 2°52.051 -999 4.307915 28.059986 -0.477864
2005-09-08 06:47:16 51°18.016 2°52.04 -999 4.307915 28.059986 -0.477864
2005-09-08 06:47:20 51°18.032 2°52.032 -999 4.307915 28.06044 -0.477864
2005-09-08 06:47:24 51°18.046 2°52.025 -999 4.307811 28.059687 -0.477864
2005-09-08 06:47:30 51°18.065 2°52.015 -999 4.307811 28.059687 -0.477864
2005-09-08 06:47:35 51°18.084 2°52.005 -999 4.307811 28.060142 -0.477864
2005-09-08 06:47:41 51°18.104 2°51.995 -999 4.307811 28.060142 -0.477864
2005-09-08 06:47:45 51°18.12 2°51.987 -999 4.307811 28.060596 -0.477864
2005-09-08 06:47:50 51°18.135 2°51.979 -999 4.307708 28.060298 -0.477864
2005-09-08 06:47:55 51°18.155 2°51.969 -999 4.307708 28.060298 -0.477864
2005-09-08 06:48:00 51°18.172 2°51.96 -999 4.307708 28.060298 -0.477864
2005-09-08 06:48:06 51°18.192 2°51.95 -999 4.307708 28.060298 -0.477864
2005-09-08 06:48:10 51°18.206 2°51.943 -999 4.307708 28.060752 -0.477864
2005-09-08 06:48:14 51°18.222 2°51.934 -999 4.307604 28.060454 -0.477864
2005-09-08 06:48:20 51°18.242 2°51.923 -999 4.307604 28.060454 -0.477864
2005-09-08 06:48:26 51°18.262 2°51.913 -999 4.3075 28.060156 -0.477864
2005-09-08 06:48:30 51°18.276 2°51.905 -999 4.3075 28.060156 -0.477864
2005-09-08 06:48:36 51°18.297 2°51.894 -999 4.3075 28.06061 -0.477864
2005-09-08 06:48:40 51°18.312 2°51.885 -999 4.307396 28.059857 -0.477864
2005-09-08 06:48:46 51°18.332 2°51.875 -999 4.307396 28.060312 -0.477864
2005-09-08 06:48:50 51°18.346 2°51.868 -999 4.307396 28.060312 -0.477864
2005-09-08 06:48:55 51°18.365 2°51.858 -999 4.307293 28.060014 -0.477864
2005-09-08 06:49:00 51°18.383 2°51.849 -999 4.307293 28.060014 -0.477864
2005-09-08 06:49:04 51°18.397 2°51.842 -999 4.307293 28.060014 -0.477864
2005-09-08 06:49:10 51°18.418 2°51.831 -999 4.307293 28.060468 -0.477864
2005-09-08 06:49:15 51°18.435 2°51.822 -999 4.307293 28.060923 -0.477864
2005-09-08 06:49:21 51°18.455 2°51.812 -999 4.307293 28.060923 -0.477864
2005-09-08 06:49:24 51°18.467 2°51.806 -999 4.307189 28.060624 -0.477864
2005-09-08 06:49:30 51°18.486 2°51.796 -999 4.307189 28.060624 -0.477864
2005-09-08 06:49:35 51°18.506 2°51.786 -999 4.307189 28.061079 -0.477864
2005-09-08 06:49:40 51°18.523 2°51.777 -999 4.307085 28.060326 -0.477864
2005-09-08 06:49:45 51°18.539 2°51.768 -999 4.307085 28.060781 -0.477864
2005-09-08 06:49:50 51°18.557 2°51.759 -999 4.307085 28.061235 -0.477864
2005-09-08 06:49:56 51°18.577 2°51.748 -999 4.306982 28.060482 -0.477864
2005-09-08 06:50:00 51°18.593 2°51.739 -999 4.306982 28.060482 -0.477864
2005-09-08 06:50:05 51°18.609 2°51.731 -999 4.306982 28.060937 -0.477864
2005-09-08 06:50:10 51°18.627 2°51.722 -999 4.306982 28.060937 -0.477864
2005-09-08 06:50:15 51°18.646 2°51.713 -999 4.306878 28.060639 -0.477864
2005-09-08 06:50:20 51°18.664 2°51.704 -999 4.306878 28.061093 -0.477864
2005-09-08 06:50:26 51°18.683 2°51.693 -999 4.306878 28.061093 -0.477864
2005-09-08 06:50:30 51°18.699 2°51.685 -999 4.306878 28.061093 -0.477864
2005-09-08 06:50:35 51°18.715 2°51.677 -999 4.306774 28.06034 -0.477864
2005-09-08 06:50:40 51°18.734 2°51.667 -999 4.306774 28.061249 -0.444155
2005-09-08 06:50:45 51°18.75 2°51.659 -999 4.306774 28.061249 -0.477864
2005-09-08 06:50:50 51°18.769 2°51.649 -999 4.30667 28.060951 -0.477864
2005-09-08 06:50:55 51°18.787 2°51.64 -999 4.30667 28.060951 -0.477864
2005-09-08 06:51:00 51°18.805 2°51.63 -999 4.30667 28.060951 -0.477864
2005-09-08 06:51:05 51°18.821 2°51.622 -999 4.30667 28.061406 -0.477864
2005-09-08 06:51:10 51°18.838 2°51.613 -999 4.306567 28.061107 -0.477864
2005-09-08 06:51:16 51°18.859 2°51.602 -999 4.306567 28.061107 -0.477864
2005-09-08 06:51:20 51°18.875 2°51.593 -999 4.306567 28.061562 -0.477864
2005-09-08 06:51:26 51°18.894 2°51.583 -999 4.306463 28.061264 -0.477864
2005-09-08 06:51:30 51°18.908 2°51.576 -999 4.306463 28.061264 -0.477864
2005-09-08 06:51:35 51°18.927 2°51.565 -999 4.306463 28.061264 -0.477864
2005-09-08 06:51:40 51°18.945 2°51.556 -999 4.306463 28.061718 -0.477864
2005-09-08 06:51:45 51°18.96 2°51.547 -999 4.306463 28.062173 -0.477864
2005-09-08 06:51:50 51°18.978 2°51.539 -999 4.306359 28.061875 -0.477864
2005-09-08 06:51:56 51°18.999 2°51.528 -999 4.306256 28.061122 -0.477864
2005-09-08 06:52:00 51°19.014 2°51.521 -999 4.306256 28.061122 -0.477864
2005-09-08 06:52:05 51°19.03 2°51.513 -999 4.306256 28.061122 -0.477864
2005-09-08 06:52:10 51°19.048 2°51.505 -999 4.306256 28.061577 -0.477864
2005-09-08 06:52:15 51°19.067 2°51.496 -999 4.306256 28.062031 -0.477864
2005-09-08 06:52:20 51°19.085 2°51.488 -999 4.306152 28.061278 -0.477864
2005-09-08 06:52:25 51°19.102 2°51.48 -999 4.306152 28.061733 -0.477864
2005-09-08 06:52:30 51°19.118 2°51.473 -999 4.306152 28.061733 -0.477864
2005-09-08 06:52:35 51°19.137 2°51.465 -999 4.306048 28.061435 -0.477864
2005-09-08 06:52:40 51°19.154 2°51.457 -999 4.306048 28.061435 -0.477864
2005-09-08 06:52:46 51°19.174 2°51.448 -999 4.306048 28.061889 -0.477864
2005-09-08 06:52:50 51°19.188 2°51.441 -999 4.305945 28.061136 -0.477864
2005-09-08 06:52:56 51°19.209 2°51.432 -999 4.305945 28.061591 -0.477864
2005-09-08 06:53:00 51°19.224 2°51.424 -999 4.305945 28.061591 -0.477864
2005-09-08 06:53:06 51°19.244 2°51.416 -999 4.305945 28.062046 -0.477864
2005-09-08 06:53:10 51°19.258 2°51.409 -999 4.305841 28.061748 -0.477864
2005-09-08 06:53:15 51°19.277 2°51.4 -999 4.305841 28.061748 -0.477864
2005-09-08 06:53:20 51°19.295 2°51.392 -999 4.305841 28.061748 -0.477864
2005-09-08 06:53:26 51°19.314 2°51.384 -999 4.305737 28.061449 -0.444155
2005-09-08 06:53:30 51°19.328 2°51.378 -999 4.305737 28.061449 -0.444155
2005-09-08 06:53:35 51°19.347 2°51.369 -999 4.305737 28.061904 -0.477864
2005-09-08 06:53:40 51°19.365 2°51.362 -999 4.305633 28.061606 -0.477864
2005-09-08 06:53:46 51°19.385 2°51.353 -999 4.305633 28.06206 -0.477864
2005-09-08 06:53:50 51°19.4 2°51.346 -999 4.305633 28.06206 -0.477864
2005-09-08 06:53:56 51°19.42 2°51.338 -999 4.30553 28.061762 -0.477864
2005-09-08 06:54:00 51°19.436 2°51.33 -999 4.30553 28.061762 -0.477864
2005-09-08 06:54:05 51°19.453 2°51.323 -999 4.30553 28.061762 -0.477864
2005-09-08 06:54:10 51°19.471 2°51.315 -999 4.305426 28.061464 -0.477864
2005-09-08 06:54:15 51°19.488 2°51.307 -999 4.305426 28.061464 -0.477864
2005-09-08 06:54:20 51°19.506 2°51.299 -999 4.305426 28.061919 -0.477864
2005-09-08 06:54:26 51°19.525 2°51.291 -999 4.305322 28.06162 -0.477864
2005-09-08 06:54:30 51°19.539 2°51.285 -999 4.305322 28.06162 -0.477864
2005-09-08 06:54:36 51°19.56 2°51.276 -999 4.305322 28.062075 -0.477864
2005-09-08 06:54:40 51°19.576 2°51.269 -999 4.305219 28.061322 -0.477864
2005-09-08 06:54:46 51°19.596 2°51.26 -999 4.305219 28.061777 -0.477864
2005-09-08 06:54:50 51°19.61 2°51.254 -999 4.305219 28.062232 -0.477864
2005-09-08 06:54:55 51°19.629 2°51.245 -999 4.305219 28.062232 -0.477864
2005-09-08 06:55:01 51°19.649 2°51.235 -999 4.305219 28.062232 -0.477864
2005-09-08 06:55:06 51°19.666 2°51.227 -999 4.305115 28.061933 -0.477864
2005-09-08 06:55:10 51°19.68 2°51.22 -999 4.305115 28.061933 -0.477864
2005-09-08 06:55:16 51°19.701 2°51.209 -999 4.305011 28.06209 -0.477864
2005-09-08 06:55:20 51°19.717 2°51.202 -999 4.305011 28.06209 -0.477864
2005-09-08 06:55:26 51°19.737 2°51.192 -999 4.304907 28.061792 -0.477864
2005-09-08 06:55:30 51°19.751 2°51.186 -999 4.304907 28.061792 -0.477864
2005-09-08 06:55:35 51°19.771 2°51.178 -999 4.305011 28.062545 -0.477864
2005-09-08 06:55:40 51°19.789 2°51.17 -999 4.304907 28.061792 -0.477864
2005-09-08 06:55:46 51°19.808 2°51.161 -999 4.304804 28.061948 -0.477864
2005-09-08 06:55:50 51°19.822 2°51.154 -999 4.304804 28.061948 -0.477864
2005-09-08 06:55:56 51°19.844 2°51.144 -999 4.3047 28.06165 -0.477864
2005-09-08 06:56:00 51°19.86 2°51.137 -999 4.3047 28.06165 -0.477864
2005-09-08 06:56:05 51°19.878 2°51.129 -999 4.3047 28.06165 -0.477864
2005-09-08 06:56:10 51°19.894 2°51.121 -999 4.3047 28.062105 -0.477864
2005-09-08 06:56:15 51°19.913 2°51.112 -999 4.3047 28.06256 -0.477864
2005-09-08 06:56:20 51°19.931 2°51.104 -999 4.304596 28.061806 -0.477864
2005-09-08 06:56:25 51°19.948 2°51.097 -999 4.304596 28.062261 -0.477864
2005-09-08 06:56:30 51°19.967 2°51.088 -999 4.304596 28.062261 -0.477864
2005-09-08 06:56:36 51°19.987 2°51.079 -999 4.304493 28.061963 -0.477864
2005-09-08 06:56:40 51°20.003 2°51.072 -999 4.304493 28.061963 -0.477864
2005-09-08 06:56:45 51°20.021 2°51.064 -999 4.304389 28.061665 -0.477864
2005-09-08 06:56:50 51°20.039 2°51.056 -999 4.304389 28.061665 -0.477864
2005-09-08 06:56:56 51°20.059 2°51.046 -999 4.304389 28.06212 -0.477864
2005-09-08 06:57:00 51°20.075 2°51.039 -999 4.304389 28.06212 -0.477864
2005-09-08 06:57:05 51°20.091 2°51.031 -999 4.304285 28.061821 -0.477864
2005-09-08 06:57:10 51°20.109 2°51.022 -999 4.304285 28.062276 -0.477864
2005-09-08 06:57:15 51°20.129 2°51.013 -999 4.304181 28.061523 -0.477864
2005-09-08 06:57:21 51°20.148 2°51.003 -999 4.304182 28.061978 -0.477864
2005-09-08 06:57:26 51°20.166 2°50.995 -999 4.304182 28.061978 -0.477864
2005-09-08 06:57:30 51°20.181 2°50.988 -999 4.304182 28.061978 -0.477864
2005-09-08 06:57:36 51°20.202 2°50.979 -999 4.304078 28.06168 -0.477864
2005-09-08 06:57:40 51°20.219 2°50.972 -999 4.304078 28.06168 -0.477864
2005-09-08 06:57:46 51°20.238 2°50.963 -999 4.303974 28.061381 -0.477864
2005-09-08 06:57:50 51°20.255 2°50.956 -999 4.303974 28.061836 -0.477864
2005-09-08 06:57:55 51°20.272 2°50.948 -999 4.303974 28.061836 -0.477864
2005-09-08 06:58:00 51°20.29 2°50.94 -999 4.303974 28.061836 -0.477864
2005-09-08 06:58:05 51°20.308 2°50.931 -999 4.30387 28.061538 -0.477864
2005-09-08 06:58:10 51°20.324 2°50.924 -999 4.30387 28.061993 -0.477864
2005-09-08 06:58:16 51°20.346 2°50.914 -999 4.303767 28.06124 -0.477864
2005-09-08 06:58:20 51°20.362 2°50.907 -999 4.303767 28.061695 -0.477864
2005-09-08 06:58:25 51°20.379 2°50.899 -999 4.303767 28.06215 -0.477864
2005-09-08 06:58:30 51°20.397 2°50.89 -999 4.303767 28.06215 -0.477864
2005-09-08 06:58:35 51°20.415 2°50.882 -999 4.303767 28.06215 -0.477864
2005-09-08 06:58:41 51°20.435 2°50.873 -999 4.303663 28.061851 -0.477864
2005-09-08 06:58:46 51°20.453 2°50.865 -999 4.303663 28.061851 -0.477864
2005-09-08 06:58:50 51°20.467 2°50.859 -999 4.303559 28.061553 -0.477864
2005-09-08 06:58:56 51°20.489 2°50.849 -999 4.303559 28.062008 -0.477864
2005-09-08 06:59:00 51°20.505 2°50.842 -999 4.303559 28.062008 -0.477864
2005-09-08 06:59:04 51°20.519 2°50.836 -999 4.303559 28.062008 -0.477864
2005-09-08 06:59:10 51°20.54 2°50.826 -999 4.303456 28.06171 -0.477864
2005-09-08 06:59:16 51°20.56 2°50.817 -999 4.303456 28.06171 -0.477864
2005-09-08 06:59:20 51°20.576 2°50.809 -999 4.303352 28.061411 -0.477864
2005-09-08 06:59:25 51°20.594 2°50.801 -999 4.303352 28.061866 -0.477864
2005-09-08 06:59:30 51°20.611 2°50.792 -999 4.303352 28.061866 -0.477864
2005-09-08 06:59:35 51°20.629 2°50.784 -999 4.303352 28.061866 -0.477864
2005-09-08 06:59:40 51°20.647 2°50.775 -999 4.303248 28.061568 -0.477864
2005-09-08 06:59:45 51°20.663 2°50.767 -999 4.303248 28.061568 -0.477864
2005-09-08 06:59:50 51°20.681 2°50.759 -999 4.303248 28.062023 -0.477864
2005-09-08 06:59:55 51°20.7 2°50.75 -999 4.303144 28.060815 -0.477864
2005-09-08 07:00:00 51°20.718 2°50.742 -999 4.303144 28.060815 -0.477864
2005-09-08 07:00:06 51°20.738 2°50.733 -999 4.303144 28.06127 -0.477864
2005-09-08 07:00:10 51°20.754 2°50.725 -999 4.303144 28.061725 -0.477864
2005-09-08 07:00:15 51°20.772 2°50.717 -999 4.303041 28.061426 -0.477864
2005-09-08 07:00:20 51°20.789 2°50.709 -999 4.303041 28.061882 -0.477864
2005-09-08 07:00:26 51°20.809 2°50.699 -999 4.302937 28.061128 -0.477864
2005-09-08 07:00:30 51°20.825 2°50.692 -999 4.302937 28.061128 -0.477864
2005-09-08 07:00:36 51°20.845 2°50.683 -999 4.302937 28.061583 -0.477864
2005-09-08 07:00:40 51°20.861 2°50.676 -999 4.302833 28.06083 -0.477864
2005-09-08 07:00:45 51°20.877 2°50.669 -999 4.302833 28.061285 -0.477864
2005-09-08 07:00:50 51°20.895 2°50.661 -999 4.302833 28.061285 -0.477864
2005-09-08 07:00:55 51°20.915 2°50.652 -999 4.302833 28.061285 -0.477864
2005-09-08 07:01:00 51°20.933 2°50.643 -999 4.302833 28.061285 -0.477864
2005-09-08 07:01:05 51°20.951 2°50.635 -999 4.302833 28.06174 -0.477864
2005-09-08 07:01:10 51°20.967 2°50.628 -999 4.30273 28.061442 -0.477864
2005-09-08 07:01:16 51°20.989 2°50.618 -999 4.30273 28.061442 -0.477864
2005-09-08 07:01:20 51°21.005 2°50.61 -999 4.302626 28.061143 -0.477864
2005-09-08 07:01:26 51°21.025 2°50.601 -999 4.302522 28.06039 -0.477864
2005-09-08 07:01:30 51°21.041 2°50.594 -999 4.302522 28.06039 -0.477864
2005-09-08 07:01:36 51°21.061 2°50.585 -999 4.302522 28.060845 -0.477864
2005-09-08 07:01:40 51°21.078 2°50.578 -999 4.302522 28.0613 -0.477864
2005-09-08 07:01:46 51°21.098 2°50.569 -999 4.302522 28.0613 -0.477864
2005-09-08 07:01:50 51°21.114 2°50.562 -999 4.302418 28.061002 -0.477864
2005-09-08 07:01:54 51°21.129 2°50.556 -999 4.302418 28.061457 -0.477864
2005-09-08 07:02:00 51°21.15 2°50.547 -999 4.302418 28.061457 -0.477864
2005-09-08 07:02:05 51°21.169 2°50.539 -999 4.302418 28.061457 -0.477864
2005-09-08 07:02:10 51°21.187 2°50.531 -999 4.302315 28.061159 -0.477864
2005-09-08 07:02:15 51°21.205 2°50.523 -999 4.302315 28.061159 -0.477864
2005-09-08 07:02:20 51°21.223 2°50.514 -999 4.302315 28.061614 -0.477864
2005-09-08 07:02:26 51°21.243 2°50.505 -999 4.302211 28.061315 -0.477864
2005-09-08 07:02:30 51°21.258 2°50.499 -999 4.302211 28.061315 -0.477864
2005-09-08 07:02:35 51°21.278 2°50.49 -999 4.302211 28.061315 -0.477864
2005-09-08 07:02:40 51°21.296 2°50.482 -999 4.302211 28.061315 -0.477864
2005-09-08 07:02:45 51°21.315 2°50.474 -999 4.302107 28.061017 -0.477864
2005-09-08 07:02:51 51°21.335 2°50.465 -999 4.302107 28.061472 -0.477864
2005-09-08 07:02:56 51°21.353 2°50.458 -999 4.302107 28.061472 -0.477864
2005-09-08 07:03:00 51°21.369 2°50.451 -999 4.302107 28.061472 -0.477864
2005-09-08 07:03:06 51°21.39 2°50.442 -999 4.302004 28.060719 -0.477864
2005-09-08 07:03:10 51°21.406 2°50.436 -999 4.302004 28.061629 -0.477864
2005-09-08 07:03:15 51°21.425 2°50.428 -999 4.3019 28.061331 -0.477864
2005-09-08 07:03:21 51°21.445 2°50.42 -999 4.3019 28.061331 -0.477864
2005-09-08 07:03:26 51°21.463 2°50.412 -999 4.3019 28.061331 -0.477864
2005-09-08 07:03:30 51°21.478 2°50.406 -999 4.3019 28.061331 -0.477864
2005-09-08 07:03:36 51°21.5 2°50.397 -999 4.301796 28.061488 -0.477864
2005-09-08 07:03:40 51°21.517 2°50.39 -999 4.301796 28.061488 -0.477864
2005-09-08 07:03:45 51°21.535 2°50.382 -999 4.301693 28.060734 -0.477864
2005-09-08 07:03:50 51°21.554 2°50.375 -999 4.301693 28.060734 -0.477864
2005-09-08 07:03:55 51°21.572 2°50.367 -999 4.301693 28.061645 -0.477864
2005-09-08 07:04:00 51°21.59 2°50.358 -999 4.301693 28.061645 -0.477864
2005-09-08 07:04:04 51°21.605 2°50.351 -999 4.301693 28.061645 -0.477864
2005-09-08 07:04:10 51°21.627 2°50.342 -999 4.301589 28.060891 -0.477864
2005-09-08 07:04:16 51°21.646 2°50.332 -999 4.301589 28.061346 -0.477864
2005-09-08 07:04:20 51°21.663 2°50.325 -999 4.301589 28.061802 -0.477864
2005-09-08 07:04:26 51°21.683 2°50.316 -999 4.301485 28.061048 -0.477864
2005-09-08 07:04:30 51°21.697 2°50.311 -999 4.301485 28.061048 -0.477864
2005-09-08 07:04:35 51°21.718 2°50.302 -999 4.301485 28.061503 -0.477864
2005-09-08 07:04:40 51°21.736 2°50.295 -999 4.301381 28.061205 -0.477864
2005-09-08 07:04:46 51°21.756 2°50.286 -999 4.301381 28.061205 -0.477864
2005-09-08 07:04:50 51°21.77 2°50.28 -999 4.301381 28.06166 -0.477864
2005-09-08 07:04:56 51°21.792 2°50.271 -999 4.301381 28.062116 -0.477864
2005-09-08 07:05:00 51°21.809 2°50.264 -999 4.301381 28.062116 -0.477864
2005-09-08 07:05:05 51°21.825 2°50.258 -999 4.301278 28.061362 -0.477864
2005-09-08 07:05:10 51°21.843 2°50.25 -999 4.301278 28.061362 -0.477864
2005-09-08 07:05:16 51°21.865 2°50.241 -999 4.301174 28.061063 -0.477864
2005-09-08 07:05:20 51°21.881 2°50.234 -999 4.301278 28.062273 -0.477864
2005-09-08 07:05:26 51°21.902 2°50.226 -999 4.30107 28.06122 -0.477864
2005-09-08 07:05:30 51°21.916 2°50.22 -999 4.30107 28.06122 -0.477864
2005-09-08 07:05:36 51°21.938 2°50.211 -999 4.301174 28.061974 -0.477864
2005-09-08 07:05:40 51°21.954 2°50.204 -999 4.30107 28.06122 -0.477864
2005-09-08 07:05:46 51°21.974 2°50.196 -999 4.30107 28.062131 -0.477864
2005-09-08 07:05:50 51°21.989 2°50.19 -999 4.30107 28.062131 -0.477864
2005-09-08 07:05:56 51°22.011 2°50.181 -999 4.300967 28.061833 -0.477864
2005-09-08 07:06:00 51°22.027 2°50.174 -999 4.300967 28.061833 -0.477864
2005-09-08 07:06:05 51°22.045 2°50.167 -999 4.300967 28.061833 -0.477864
2005-09-08 07:06:10 51°22.062 2°50.16 -999 4.300967 28.062288 -0.477864
2005-09-08 07:06:16 51°22.083 2°50.151 -999 4.300863 28.06199 -0.477864
2005-09-08 07:06:21 51°22.102 2°50.144 -999 4.300863 28.06199 -0.477864
2005-09-08 07:06:26 51°22.12 2°50.137 -999 4.300759 28.061236 -0.477864
2005-09-08 07:06:30 51°22.136 2°50.13 -999 4.300759 28.061236 -0.477864
2005-09-08 07:06:35 51°22.155 2°50.123 -999 4.300759 28.061236 -0.477864
2005-09-08 07:06:40 51°22.173 2°50.116 -999 4.300759 28.062147 -0.477864
2005-09-08 07:06:46 51°22.193 2°50.108 -999 4.300759 28.062147 -0.477864
2005-09-08 07:06:50 51°22.209 2°50.102 -999 4.300655 28.061849 -0.477864
2005-09-08 07:06:56 51°22.229 2°50.093 -999 4.300655 28.061849 -0.477864
2005-09-08 07:07:00 51°22.246 2°50.087 -999 4.300655 28.061849 -0.477864
2005-09-08 07:07:05 51°22.262 2°50.079 -999 4.300552 28.06155 -0.477864
2005-09-08 07:07:10 51°22.28 2°50.071 -999 4.300552 28.062006 -0.477864
2005-09-08 07:07:16 51°22.301 2°50.06 -999 4.300448 28.061707 -0.477864
2005-09-08 07:07:20 51°22.317 2°50.052 -999 4.300448 28.061707 -0.477864
2005-09-08 07:07:25 51°22.333 2°50.044 -999 4.300448 28.061707 -0.477864
2005-09-08 07:07:30 51°22.351 2°50.036 -999 4.300448 28.061707 -0.477864
2005-09-08 07:07:36 51°22.373 2°50.027 -999 4.300344 28.061409 -0.477864
2005-09-08 07:07:40 51°22.389 2°50.02 -999 4.300344 28.061864 -0.477864
2005-09-08 07:07:46 51°22.408 2°50.011 -999 4.300344 28.06232 -0.477864
2005-09-08 07:07:50 51°22.423 2°50.005 -999 4.300241 28.061566 -0.477864
2005-09-08 07:07:56 51°22.444 2°49.996 -999 4.300241 28.062022 -0.477864
2005-09-08 07:08:00 51°22.46 2°49.989 -999 4.300241 28.062022 -0.477864
2005-09-08 07:08:04 51°22.475 2°49.983 -999 4.300241 28.062022 -0.477864
2005-09-08 07:08:10 51°22.495 2°49.974 -999 4.300137 28.061723 -0.477864
2005-09-08 07:08:15 51°22.514 2°49.966 -999 4.300137 28.062179 -0.477864
2005-09-08 07:08:21 51°22.534 2°49.958 -999 4.300137 28.062179 -0.477864
2005-09-08 07:08:25 51°22.549 2°49.952 -999 4.300033 28.061425 -0.477864
2005-09-08 07:08:30 51°22.566 2°49.944 -999 4.300033 28.061425 -0.477864
2005-09-08 07:08:36 51°22.588 2°49.935 -999 4.300033 28.062336 -0.477864
2005-09-08 07:08:40 51°22.604 2°49.927 -999 4.29993 28.061582 -0.477864
2005-09-08 07:08:46 51°22.624 2°49.92 -999 4.29993 28.062038 -0.477864
2005-09-08 07:08:50 51°22.64 2°49.913 -999 4.29993 28.062038 -0.477864
2005-09-08 07:08:55 51°22.658 2°49.906 -999 4.299826 28.061739 -0.444155
2005-09-08 07:09:00 51°22.676 2°49.898 -999 4.299826 28.061739 -0.444155
2005-09-08 07:09:06 51°22.695 2°49.89 -999 4.269854 27.957464 1.477281
2005-09-08 07:09:10 51°22.71 2°49.884 -999 3.625418 23.336345 1.746956
2005-09-08 07:09:16 51°22.731 2°49.875 -999 3.584514 23.180054 3.702101
2005-09-08 07:09:20 51°22.747 2°49.867 -999 3.991476 26.455113 1.982922
2005-09-08 07:09:26 51°22.767 2°49.859 -999 4.072545 27.364452 0.297452
2005-09-08 07:09:30 51°22.783 2°49.852 -999 4.072545 27.364452 0.297452
2005-09-08 07:09:36 51°22.803 2°49.844 -999 4.174686 28.825602 -0.646411
2005-09-08 07:09:40 51°22.819 2°49.837 -999 3.793471 26.311576 -0.916087
2005-09-08 07:09:45 51°22.836 2°49.829 -999 4.46919 31.981319 -1.017215
2005-09-08 07:09:50 51°22.854 2°49.82 -999 4.492542 32.41403 -1.050924
2005-09-08 07:09:56 51°22.874 2°49.812 -999 4.476047 32.481974 -1.118343
2005-09-08 07:10:00 51°22.89 2°49.805 -999 4.476047 32.481974 -1.118343
2005-09-08 07:10:05 51°22.907 2°49.797 -999 4.492237 32.739616 -1.084634
2005-09-08 07:10:10 51°22.923 2°49.79 -999 4.486428 32.797401 -1.118343
2005-09-08 07:10:16 51°22.945 2°49.781 -999 4.481136 32.805389 -1.118343
2005-09-08 07:10:20 51°22.961 2°49.774 -999 4.477402 32.80904 -1.118343
2005-09-08 07:10:26 51°22.981 2°49.766 -999 4.475015 32.812131 -1.118343
2005-09-08 07:10:30 51°22.995 2°49.76 -999 4.475015 32.812131 -1.118343
2005-09-08 07:10:35 51°23.015 2°49.751 -999 4.47294 32.81472 -1.118343
2005-09-08 07:10:40 51°23.033 2°49.744 -999 4.466403 32.774556 -1.118343
2005-09-08 07:10:46 51°23.053 2°49.736 -999 4.461112 32.742758 -1.152053
2005-09-08 07:10:50 51°23.067 2°49.73 -999 4.47346 32.855205 -1.118343
2005-09-08 07:10:56 51°23.089 2°49.721 -999 4.470036 32.836291 -1.118343
2005-09-08 07:11:01 51°23.107 2°49.713 -999 4.470036 32.836291 -1.118343
2005-09-08 07:11:06 51°23.124 2°49.705 -999 4.469932 32.845891 -1.118343
2005-09-08 07:11:10 51°23.14 2°49.698 -999 4.470036 32.857203 -1.118343
2005-09-08 07:11:15 51°23.158 2°49.691 -999 4.469414 32.855161 -1.084634
2005-09-08 07:11:21 51°23.178 2°49.683 -999 4.468376 32.847245 -1.118343
2005-09-08 07:11:26 51°23.196 2°49.675 -999 4.468791 32.856198 -1.118343
2005-09-08 07:11:30 51°23.211 2°49.669 -999 4.468791 32.856198 -1.118343
2005-09-08 07:11:35 51°23.23 2°49.661 -999 4.468791 32.862356 -1.118343
2005-09-08 07:11:40 51°23.248 2°49.654 -999 4.459141 32.781764 -1.084634
2005-09-08 07:11:46 51°23.268 2°49.645 -999 4.465471 32.831968 -1.118343
2005-09-08 07:11:50 51°23.282 2°49.64 -999 4.466197 32.848407 -1.118343
2005-09-08 07:11:56 51°23.304 2°49.631 -999 4.464952 32.841858 -1.118343
2005-09-08 07:12:00 51°23.32 2°49.624 -999 4.464952 32.841858 -1.118343
2005-09-08 07:12:05 51°23.336 2°49.617 -999 4.464952 32.844937 -1.118343
2005-09-08 07:12:10 51°23.356 2°49.609 -999 4.468584 32.880371 -1.118343
2005-09-08 07:12:16 51°23.375 2°49.6 -999 4.468688 32.883692 -1.118343
2005-09-08 07:12:20 51°23.391 2°49.593 -999 4.466924 32.871639 -1.118343
2005-09-08 07:12:25 51°23.409 2°49.586 -999 4.466301 32.867747 -1.118343
2005-09-08 07:12:30 51°23.426 2°49.579 -999 4.466301 32.867747 -1.118343
2005-09-08 07:12:36 51°23.447 2°49.57 -999 4.467443 32.880844 -1.118343
2005-09-08 07:12:40 51°23.463 2°49.563 -999 4.465783 32.87026 -1.118343
2005-09-08 07:12:45 51°23.479 2°49.556 -999 4.46599 32.874436 -1.118343
2005-09-08 07:12:50 51°23.497 2°49.548 -999 4.463085 32.851748 -1.118343
2005-09-08 07:12:56 51°23.518 2°49.538 -999 4.462255 32.84738 -1.118343
2005-09-08 07:13:00 51°23.535 2°49.531 -999 4.462255 32.84738 -1.118343
2005-09-08 07:13:05 51°23.553 2°49.524 -999 4.467028 32.887918 -1.118343
2005-09-08 07:13:10 51°23.571 2°49.518 -999 4.467754 32.895135 -1.118343
2005-09-08 07:13:15 51°23.589 2°49.513 -999 4.466821 32.889913 -1.118343
2005-09-08 07:13:20 51°23.607 2°49.507 -999 4.461944 32.850366 -1.118343
2005-09-08 07:13:26 51°23.627 2°49.502 -999 4.458935 32.829902 -1.118343
2005-09-08 07:13:30 51°23.641 2°49.497 -999 4.458935 32.829902 -1.118343
2005-09-08 07:13:35 51°23.661 2°49.492 -999 4.466924 32.896944 -1.118343
2005-09-08 07:13:41 51°23.681 2°49.487 -999 4.460284 32.843477 -1.118343
2005-09-08 07:13:46 51°23.699 2°49.482 -999 4.468688 32.912712 -1.118343
2005-09-08 07:13:50 51°23.715 2°49.478 -999 4.464642 32.881226 -1.118343
2005-09-08 07:13:56 51°23.735 2°49.473 -999 4.467858 32.907108 -1.118343
2005-09-08 07:14:00 51°23.752 2°49.468 -999 4.467858 32.907108 -1.118343
2005-09-08 07:14:05 51°23.77 2°49.463 -999 4.466925 32.902504 -1.118343
2005-09-08 07:14:10 51°23.786 2°49.457 -999 4.464019 32.88042 -1.118343
2005-09-08 07:14:16 51°23.808 2°49.451 -999 4.466198 32.900227 -1.118343
2005-09-08 07:14:20 51°23.824 2°49.446 -999 4.466613 32.907356 -1.118343
2005-09-08 07:14:25 51°23.84 2°49.441 -999 4.468481 32.925223 -1.118343
2005-09-08 07:14:30 51°23.859 2°49.436 -999 4.468481 32.925223 -1.118343
2005-09-08 07:14:36 51°23.88 2°49.43 -999 4.468585 32.928553 -1.118343
2005-09-08 07:14:40 51°23.897 2°49.425 -999 4.468896 32.932975 -1.118343
2005-09-08 07:14:45 51°23.913 2°49.42 -999 4.467029 32.918816 -1.118343
2005-09-08 07:14:50 51°23.933 2°49.414 -999 4.465472 32.906605 -1.118343
2005-09-08 07:14:56 51°23.953 2°49.407 -999 4.469104 32.937162 -1.084634
2005-09-08 07:15:00 51°23.969 2°49.403 -999 4.469104 32.937162 -1.084634
2005-09-08 07:15:06 51°23.989 2°49.397 -999 4.470453 32.948283 -1.118343
2005-09-08 07:15:10 51°24.004 2°49.393 -999 4.467029 32.921291 -1.118343
2005-09-08 07:15:15 51°24.024 2°49.387 -999 4.470972 32.956896 -1.118343
2005-09-08 07:15:20 51°24.042 2°49.382 -999 4.462878 32.890167 -1.084634
2005-09-08 07:15:25 51°24.06 2°49.377 -999 4.468481 32.936981 -1.118343
2005-09-08 07:15:30 51°24.078 2°49.372 -999 4.468481 32.936981 -1.118343
2005-09-08 07:15:35 51°24.096 2°49.368 -999 4.465369 32.911934 -1.118343
2005-09-08 07:15:40 51°24.114 2°49.363 -999 4.465057 32.909368 -1.118343
2005-09-08 07:15:46 51°24.134 2°49.358 -999 4.464642 32.906565 -1.118343
2005-09-08 07:15:50 51°24.149 2°49.354 -999 4.466095 32.918542 -1.118343
2005-09-08 07:15:56 51°24.171 2°49.348 -999 4.469727 32.949106 -1.084634
2005-09-08 07:16:00 51°24.187 2°49.343 -999 4.469727 32.949106 -1.084634
2005-09-08 07:16:06 51°24.207 2°49.338 -999 4.463708 32.899484 -1.084634
2005-09-08 07:16:10 51°24.223 2°49.334 -999 4.464331 32.905854 -1.084634
2005-09-08 07:16:16 51°24.243 2°49.329 -999 4.470453 32.956954 -1.084634
2005-09-08 07:16:20 51°24.259 2°49.326 -999 4.470557 32.959049 -1.084634
2005-09-08 07:16:25 51°24.278 2°49.321 -999 4.462982 32.897206 -1.084634
2005-09-08 07:16:30 51°24.294 2°49.317 -999 4.462982 32.897206 -1.084634
2005-09-08 07:16:36 51°24.316 2°49.312 -999 4.466925 32.929719 -1.084634
2005-09-08 07:16:40 51°24.332 2°49.308 -999 4.467236 32.933524 -1.084634
2005-09-08 07:16:44 51°24.347 2°49.305 -999 4.470142 32.958725 -1.084634
2005-09-08 07:16:50 51°24.367 2°49.3 -999 4.470349 32.961676 -1.084634
2005-09-08 07:16:56 51°24.389 2°49.295 -999 4.467133 32.935764 -1.084634
2005-09-08 07:17:00 51°24.405 2°49.291 -999 4.467133 32.935764 -1.084634
2005-09-08 07:17:05 51°24.424 2°49.287 -999 4.46651 32.931868 -1.084634
2005-09-08 07:17:10 51°24.44 2°49.282 -999 4.470453 32.965011 -1.084634
2005-09-08 07:17:16 51°24.462 2°49.277 -999 4.458832 32.869785 -1.084634
2005-09-08 07:17:20 51°24.478 2°49.273 -999 4.45935 32.873445 -1.084634
2005-09-08 07:17:25 51°24.497 2°49.269 -999 4.457171 32.854861 -1.084634
2005-09-08 07:17:30 51°24.513 2°49.265 -999 4.457171 32.854861 -1.084634
2005-09-08 07:17:35 51°24.533 2°49.26 -999 4.463501 32.907052 -1.084634
2005-09-08 07:17:40 51°24.551 2°49.255 -999 4.461633 32.89165 -1.084634
2005-09-08 07:17:46 51°24.571 2°49.25 -999 4.463086 32.904248 -1.084634
2005-09-08 07:17:50 51°24.586 2°49.245 -999 4.462256 32.897402 -1.084634
2005-09-08 07:17:55 51°24.605 2°49.237 -999 4.458832 32.870403 -1.084634
2005-09-08 07:18:00 51°24.623 2°49.229 -999 4.458832 32.870403 -1.084634
2005-09-08 07:18:05 51°24.639 2°49.221 -999 4.461737 32.894361 -1.084634
2005-09-08 07:18:09 51°24.655 2°49.214 -999 4.458417 32.867599 -1.084634
2005-09-08 07:18:15 51°24.677 2°49.203 -999 4.457068 32.856477 -1.050924
2005-09-08 07:18:20 51°24.694 2°49.194 -999 4.459662 32.877866 -1.050924
2005-09-08 07:18:26 51°24.714 2°49.184 -999 4.461633 32.892887 -0.916087
2005-09-08 07:18:30 51°24.728 2°49.177 -999 4.461633 32.892887 -0.916087
2005-09-08 07:18:36 51°24.75 2°49.166 -999 4.461945 32.89731 -1.017215
2005-09-08 07:18:40 51°24.766 2°49.158 -999 4.458728 32.873257 -1.050924
2005-09-08 07:18:44 51°24.78 2°49.15 -999 4.461115 32.894794 -1.050924
2005-09-08 07:18:50 51°24.8 2°49.14 -999 4.453747 32.835276 -1.050924
2005-09-08 07:18:56 51°24.821 2°49.128 -999 4.454993 32.845543 -1.050924
2005-09-08 07:19:00 51°24.837 2°49.118 -999 4.454993 32.845543 -1.050924
2005-09-08 07:19:05 51°24.852 2°49.109 -999 4.453021 32.830522 -1.050924
2005-09-08 07:19:10 51°24.872 2°49.097 -999 4.459558 32.884432 -1.050924
2005-09-08 07:19:15 51°24.889 2°49.087 -999 4.453748 32.836511 -1.050924
2005-09-08 07:19:20 51°24.907 2°49.076 -999 4.44939 32.800578 -1.050924
2005-09-08 07:19:24 51°24.921 2°49.067 -999 4.460803 32.89532 -1.050924
2005-09-08 07:19:30 51°24.942 2°49.054 -999 4.460803 32.89532 -1.050924
2005-09-08 07:19:36 51°24.961 2°49.043 -999 4.446381 32.777004 -1.017215
2005-09-08 07:19:40 51°24.977 2°49.033 -999 4.44939 32.801812 -1.050924
2005-09-08 07:19:46 51°24.997 2°49.022 -999 4.453436 32.83518 -1.050924
2005-09-08 07:19:50 51°25.013 2°49.012 -999 4.458106 32.874306 -1.050924
2005-09-08 07:19:56 51°25.032 2°49.001 -999 4.452191 32.824912 -1.050924
2005-09-08 07:20:00 51°25.048 2°48.991 -999 4.452191 32.824912 -1.050924
2005-09-08 07:20:06 51°25.067 2°48.98 -999 4.453851 32.83922 -1.050924
2005-09-08 07:20:10 51°25.082 2°48.971 -999 4.458209 32.875161 -1.017215
2005-09-08 07:20:16 51°25.103 2°48.959 -999 4.458521 32.878347 -1.050924
2005-09-08 07:20:21 51°25.121 2°48.948 -999 4.454785 32.846921 -1.050924
2005-09-08 07:20:25 51°25.136 2°48.941 -999 4.45188 32.82358 -1.017215
2005-09-08 07:20:30 51°25.153 2°48.93 -999 4.45188 32.82358 -1.017215
2005-09-08 07:20:35 51°25.173 2°48.92 -999 4.459973 32.89033 -1.017215
2005-09-08 07:20:40 51°25.191 2°48.909 -999 4.45437 32.844734 -1.050924
2005-09-08 07:20:46 51°25.21 2°48.898 -999 4.448871 32.799386 -1.017215
2005-09-08 07:20:50 51°25.226 2°48.888 -999 4.455096 32.851342 -1.017215
2005-09-08 07:20:56 51°25.246 2°48.877 -999 4.457794 32.873593 -1.017215
2005-09-08 07:21:00 51°25.262 2°48.867 -999 4.457794 32.873593 -1.017215
2005-09-08 07:21:05 51°25.278 2°48.857 -999 4.447937 32.793537 -1.017215
2005-09-08 07:21:10 51°25.295 2°48.846 -999 4.46734 32.954207 -1.017215
2005-09-08 07:21:16 51°25.316 2°48.833 -999 4.464643 32.931327 -1.017215
2005-09-08 07:21:20 51°25.331 2°48.822 -999 4.464331 32.929378 -1.017215
2005-09-08 07:21:24 51°25.345 2°48.813 -999 4.469416 32.971953 -1.017215
2005-09-08 07:21:30 51°25.366 2°48.8 -999 4.469416 32.971953 -1.017215
2005-09-08 07:21:36 51°25.385 2°48.789 -999 4.461945 32.911546 -1.017215
2005-09-08 07:21:40 51°25.401 2°48.779 -999 4.471595 32.993041 -1.017215
2005-09-08 07:21:46 51°25.42 2°48.767 -999 4.473982 33.013983 -1.017215
2005-09-08 07:21:50 51°25.434 2°48.759 -999 4.474915 33.022936 -1.017215
2005-09-08 07:21:56 51°25.455 2°48.746 -999 4.484255 33.100673 -0.983506
2005-09-08 07:22:00 51°25.47 2°48.735 -999 4.484255 33.100673 -0.983506
2005-09-08 07:22:05 51°25.486 2°48.725 -999 4.482906 33.090777 -0.983506
2005-09-08 07:22:10 51°25.503 2°48.714 -999 4.48467 33.10597 -1.017215
2005-09-08 07:22:15 51°25.522 2°48.701 -999 4.486953 33.12545 -0.983506
2005-09-08 07:22:20 51°25.539 2°48.688 -999 4.490896 33.158648 -0.983506
2005-09-08 07:22:26 51°25.558 2°48.675 -999 4.484462 33.106125 -0.983506
2005-09-08 07:22:30 51°25.572 2°48.665 -999 4.484462 33.106125 -0.983506
2005-09-08 07:22:35 51°25.59 2°48.651 -999 4.484773 33.10932 -0.983506
2005-09-08 07:22:40 51°25.608 2°48.64 -999 4.482075 33.087036 -0.983506
2005-09-08 07:22:46 51°25.627 2°48.627 -999 4.488717 33.141893 -0.983506
2005-09-08 07:22:50 51°25.642 2°48.617 -999 4.491207 33.163093 -0.983506
2005-09-08 07:22:55 51°25.66 2°48.606 -999 4.480415 33.074569 -0.983506
2005-09-08 07:23:00 51°25.677 2°48.595 -999 4.480415 33.074569 -0.983506
2005-09-08 07:23:05 51°25.692 2°48.585 -999 4.489443 33.148518 -0.983506
2005-09-08 07:23:10 51°25.708 2°48.574 -999 4.486122 33.12171 -0.983506
2005-09-08 07:23:16 51°25.726 2°48.561 -999 4.482802 33.094904 -0.983506
2005-09-08 07:23:20 51°25.738 2°48.553 -999 4.494009 33.188118 -0.983506
2005-09-08 07:23:24 51°25.749 2°48.546 -999 4.478444 33.060775 -0.949796
2005-09-08 07:23:30 51°25.763 2°48.536 -999 4.478444 33.060775 -0.949796
2005-09-08 07:23:35 51°25.777 2°48.528 -999 4.495358 33.201766 -0.949796
2005-09-08 07:23:40 51°25.789 2°48.521 -999 4.49816 33.2268 -0.949796
2005-09-08 07:23:45 51°25.801 2°48.515 -999 4.500547 33.249034 -0.949796
2005-09-08 07:23:50 51°25.813 2°48.509 -999 4.501999 33.261672 -0.949796
2005-09-08 07:23:56 51°25.826 2°48.503 -999 4.503349 33.275333 -0.949796
2005-09-08 07:24:00 51°25.836 2°48.499 -999 4.503349 33.275333 -0.949796
2005-09-08 07:24:05 51°25.848 2°48.495 -999 4.504594 33.288138 -0.949796
2005-09-08 07:24:10 51°25.859 2°48.491 -999 4.506358 33.30461 -0.949796
2005-09-08 07:24:15 51°25.869 2°48.486 -999 4.507707 33.318907 -0.949796
2005-09-08 07:24:21 51°25.881 2°48.48 -999 4.508953 33.332977 -0.949796
2005-09-08 07:24:25 51°25.89 2°48.475 -999 4.509679 33.342128 -0.949796
2005-09-08 07:24:30 51°25.9 2°48.469 -999 4.509679 33.342128 -0.949796
2005-09-08 07:24:35 51°25.911 2°48.462 -999 4.50999 33.345961 -0.949796
2005-09-08 07:24:40 51°25.922 2°48.455 -999 4.510094 33.347448 -0.949796
2005-09-08 07:24:45 51°25.932 2°48.449 -999 4.510509 33.352141 -0.949796
2005-09-08 07:24:50 51°25.941 2°48.443 -999 4.510821 33.355346 -0.949796
2005-09-08 07:24:55 51°25.952 2°48.436 -999 4.511132 33.35918 -0.949796
2005-09-08 07:25:01 51°25.963 2°48.43 -999 4.51134 33.362155 -0.949796
2005-09-08 07:25:05 51°25.97 2°48.426 -999 4.51134 33.362155 -0.949796
2005-09-08 07:25:09 51°25.978 2°48.422 -999 4.511651 33.36599 -0.916087
2005-09-08 07:25:16 51°25.988 2°48.418 -999 4.511651 33.366619 -0.949796
2005-09-08 07:25:20 51°25.995 2°48.415 -999 4.511651 33.367248 -0.916087
2005-09-08 07:25:25 51°26.001 2°48.413 -999 4.511651 33.367248 -0.949796
2005-09-08 07:25:30 51°26.007 2°48.411 -999 4.511651 33.367248 -0.949796
2005-09-08 07:25:36 51°26.013 2°48.41 -999 4.511755 33.369365 -0.916087
2005-09-08 07:25:40 51°26.017 2°48.41 -999 4.511755 33.369994 -0.916087
2005-09-08 07:25:45 51°26.02 2°48.409 -999 4.511651 33.370394 -0.916087
2005-09-08 07:25:50 51°26.022 2°48.409 -999 4.511651 33.371023 -0.916087
2005-09-08 07:25:56 51°26.024 2°48.409 -999 4.511651 33.371652 -0.916087
2005-09-08 07:26:00 51°26.025 2°48.407 -999 4.511651 33.371652 -0.916087
2005-09-08 07:26:04 51°26.025 2°48.405 -999 4.507708 33.33838 -0.916087
2005-09-08 07:26:10 51°26.025 2°48.403 -999 4.511755 33.371882 -0.916087
2005-09-08 07:26:15 51°26.025 2°48.4 -999 4.511962 33.374229 -0.916087
2005-09-08 07:26:20 51°26.025 2°48.397 -999 4.512066 33.375088 -0.916087
2005-09-08 07:26:26 51°26.025 2°48.395 -999 4.51217 33.374689 -0.882377
2005-09-08 07:26:30 51°26.025 2°48.393 -999 4.51217 33.374689 -0.882377
2005-09-08 07:26:36 51°26.024 2°48.39 -999 4.51217 33.37406 -0.882377
2005-09-08 07:26:40 51°26.024 2°48.388 -999 4.51217 33.37406 -0.882377
2005-09-08 07:26:46 51°26.024 2°48.385 -999 4.51217 33.37406 -0.882377
2005-09-08 07:26:50 51°26.025 2°48.383 -999 4.511962 33.372971 -0.882377
2005-09-08 07:26:56 51°26.025 2°48.381 -999 4.512066 33.375088 -0.882377
2005-09-08 07:27:00 51°26.025 2°48.379 -999 4.512066 33.375088 -0.882377
2005-09-08 07:27:06 51°26.025 2°48.376 -999 4.512066 33.376347 -0.882377
2005-09-08 07:27:10 51°26.025 2°48.374 -999 4.51217 33.379094 -0.882377
2005-09-08 07:27:16 51°26.025 2°48.371 -999 4.512377 33.382701 -0.882377
2005-09-08 07:27:21 51°26.025 2°48.369 -999 4.512274 33.382472 -0.882377
2005-09-08 07:27:26 51°26.025 2°48.367 -999 4.512274 33.383101 -0.882377
2005-09-08 07:27:31 51°26.025 2°48.365 -999 4.512274 33.383101 -0.882377
2005-09-08 07:27:36 51°26.025 2°48.363 -999 4.51217 33.382242 -0.882377
2005-09-08 07:27:40 51°26.025 2°48.361 -999 4.512274 33.383731 -0.882377
2005-09-08 07:27:45 51°26.025 2°48.359 -999 4.512378 33.38522 -0.882377
2005-09-08 07:27:50 51°26.025 2°48.357 -999 4.512585 33.388198 -0.882377
2005-09-08 07:27:56 51°26.026 2°48.355 -999 4.512274 33.38562 -0.882377
2005-09-08 07:28:00 51°26.026 2°48.354 -999 4.512274 33.38562 -0.882377
2005-09-08 07:28:06 51°26.026 2°48.352 -999 4.512066 33.382642 -0.882377
2005-09-08 07:28:10 51°26.026 2°48.351 -999 4.512066 33.381382 -0.882377
2005-09-08 07:28:16 51°26.026 2°48.348 -999 4.511962 33.379894 -0.882377
2005-09-08 07:28:20 51°26.026 2°48.347 -999 4.511962 33.380523 -0.882377
2005-09-08 07:28:26 51°26.027 2°48.345 -999 4.511962 33.380523 -0.882377
2005-09-08 07:28:30 51°26.027 2°48.344 -999 4.511962 33.380523 -0.882377
2005-09-08 07:28:36 51°26.027 2°48.342 -999 4.512066 33.382012 -0.882377
2005-09-08 07:28:40 51°26.027 2°48.341 -999 4.51217 33.382871 -0.882377
2005-09-08 07:28:46 51°26.027 2°48.339 -999 4.51217 33.383501 -0.882377
2005-09-08 07:28:50 51°26.027 2°48.338 -999 4.51217 33.383501 -0.848668
2005-09-08 07:28:56 51°26.027 2°48.336 -999 4.51217 33.383501 -0.848668
2005-09-08 07:29:01 51°26.028 2°48.335 -999 4.51217 33.383501 -0.848668
2005-09-08 07:29:05 51°26.028 2°48.333 -999 4.512066 33.382642 -0.882377
2005-09-08 07:29:10 51°26.028 2°48.332 -999 4.51217 33.384131 -0.848668
2005-09-08 07:29:15 51°26.028 2°48.33 -999 4.512274 33.38499 -0.848668
2005-09-08 07:29:20 51°26.028 2°48.329 -999 4.512274 33.38499 -0.848668
2005-09-08 07:29:26 51°26.028 2°48.327 -999 4.512274 33.38499 -0.848668
2005-09-08 07:29:30 51°26.028 2°48.326 -999 4.512274 33.38499 -0.848668
2005-09-08 07:29:36 51°26.029 2°48.324 -999 4.51217 33.384131 -0.848668
2005-09-08 07:29:40 51°26.029 2°48.323 -999 4.512274 33.38499 -0.848668
2005-09-08 07:29:46 51°26.029 2°48.322 -999 4.51217 33.384131 -0.848668
2005-09-08 07:29:50 51°26.029 2°48.321 -999 4.51217 33.384131 -0.848668
2005-09-08 07:29:56 51°26.029 2°48.319 -999 4.512378 33.385849 -0.848668
2005-09-08 07:30:00 51°26.029 2°48.318 -999 4.512378 33.385849 -0.848668
2005-09-08 07:30:05 51°26.03 2°48.317 -999 4.512481 33.387338 -0.848668
2005-09-08 07:30:10 51°26.03 2°48.315 -999 4.512481 33.387968 -0.848668
2005-09-08 07:30:16 51°26.03 2°48.314 -999 4.512481 33.387968 -0.848668
2005-09-08 07:30:20 51°26.03 2°48.313 -999 4.512481 33.387338 -0.848668
2005-09-08 07:30:24 51°26.031 2°48.312 -999 4.512481 33.386709 -0.848668
2005-09-08 07:30:30 51°26.031 2°48.311 -999 4.512481 33.386709 -0.848668
2005-09-08 07:30:35 51°26.031 2°48.309 -999 4.512585 33.387568 -0.848668
2005-09-08 07:30:40 51°26.031 2°48.308 -999 4.512585 33.387568 -0.848668
2005-09-08 07:30:44 51°26.031 2°48.307 -999 4.512793 33.389916 -0.848668
2005-09-08 07:30:50 51°26.032 2°48.306 -999 4.512896 33.390146 -0.848668
2005-09-08 07:30:56 51°26.032 2°48.305 -999 4.513104 33.391235 -0.848668
2005-09-08 07:31:00 51°26.032 2°48.304 -999 4.513104 33.391235 -0.848668
2005-09-08 07:31:05 51°26.033 2°48.303 -999 4.513311 33.392954 -0.814958
2005-09-08 07:31:10 51°26.033 2°48.302 -999 4.513519 33.394043 -0.848668
2005-09-08 07:31:16 51°26.034 2°48.301 -999 4.51383 33.395361 -0.848668
2005-09-08 07:31:20 51°26.034 2°48.301 -999 4.514245 33.396909 -0.814958
2005-09-08 07:31:24 51°26.035 2°48.301 -999 4.514764 33.399316 -0.814958
2005-09-08 07:31:30 51°26.037 2°48.301 -999 4.514764 33.399316 -0.814958
2005-09-08 07:31:35 51°26.039 2°48.303 -999 4.515283 33.402353 -0.848668
2005-09-08 07:31:40 51°26.041 2°48.305 -999 4.515387 33.403212 -0.814958
2005-09-08 07:31:46 51°26.043 2°48.307 -999 4.515594 33.40556 -0.814958
2005-09-08 07:31:51 51°26.046 2°48.311 -999 4.515594 33.40808 -0.814958
2005-09-08 07:31:56 51°26.048 2°48.314 -999 4.515595 33.40997 -0.814958
2005-09-08 07:32:00 51°26.05 2°48.318 -999 4.515595 33.40997 -0.814958
2005-09-08 07:32:06 51°26.052 2°48.324 -999 4.515595 33.4106 -0.814958
2005-09-08 07:32:10 51°26.054 2°48.328 -999 4.515387 33.408882 -0.814958
2005-09-08 07:32:16 51°26.055 2°48.335 -999 4.515595 33.4106 -0.814958
2005-09-08 07:32:20 51°26.055 2°48.341 -999 4.515698 33.41272 -0.814958
2005-09-08 07:32:26 51°26.055 2°48.348 -999 4.515283 33.408022 -0.814958
2005-09-08 07:32:30 51°26.055 2°48.353 -999 4.515283 33.408022 -0.814958
2005-09-08 07:32:36 51°26.054 2°48.36 -999 4.514868 33.403325 -0.814958
2005-09-08 07:32:40 51°26.052 2°48.366 -999 4.514661 33.401606 -0.814958
2005-09-08 07:32:45 51°26.05 2°48.371 -999 4.514349 33.399658 -0.814958
2005-09-08 07:32:50 51°26.048 2°48.377 -999 4.51383 33.394102 -0.814958
2005-09-08 07:32:55 51°26.044 2°48.382 -999 4.513208 33.386427 -0.814958
2005-09-08 07:33:00 51°26.041 2°48.387 -999 4.513208 33.386427 -0.814958
2005-09-08 07:33:06 51°26.036 2°48.393 -999 4.512689 33.379614 -0.814958
2005-09-08 07:33:10 51°26.033 2°48.396 -999 4.512481 33.376008 -0.814958
2005-09-08 07:33:16 51°26.027 2°48.401 -999 4.512274 33.37366 -0.814958
2005-09-08 07:33:20 51°26.023 2°48.405 -999 4.512274 33.37429 -0.814958
2005-09-08 07:33:24 51°26.019 2°48.409 -999 4.51217 33.373431 -0.814958
2005-09-08 07:33:30 51°26.013 2°48.414 -999 4.51217 33.373431 -0.814958
2005-09-08 07:33:35 51°26.008 2°48.419 -999 4.512066 33.373201 -0.814958
2005-09-08 07:33:40 51°26.002 2°48.425 -999 4.512066 33.37383 -0.814958
2005-09-08 07:33:46 51°25.997 2°48.431 -999 4.511962 33.3736 -0.814958
2005-09-08 07:33:50 51°25.993 2°48.436 -999 4.511755 33.372511 -0.814958
2005-09-08 07:33:55 51°25.989 2°48.442 -999 4.511651 33.371652 -0.781249
2005-09-08 07:34:01 51°25.985 2°48.449 -999 4.511651 33.371652 -0.781249
2005-09-08 07:34:06 51°25.983 2°48.454 -999 4.511547 33.370793 -0.814958
2005-09-08 07:34:10 51°25.981 2°48.458 -999 4.511443 33.369934 -0.781249
2005-09-08 07:34:15 51°25.979 2°48.462 -999 4.511443 33.370563 -0.781249
2005-09-08 07:34:20 51°25.978 2°48.465 -999 4.511443 33.370563 -0.781249
2005-09-08 07:34:26 51°25.977 2°48.468 -999 4.511547 33.371422 -0.781249
2005-09-08 07:34:30 51°25.977 2°48.469 -999 4.511547 33.371422 -0.781249
2005-09-08 07:34:35 51°25.976 2°48.47 -999 4.511651 33.370394 -0.781249
2005-09-08 07:34:41 51°25.976 2°48.472 -999 4.511755 33.370623 -0.781249
2005-09-08 07:34:46 51°25.976 2°48.473 -999 4.511755 33.369365 -0.781249
2005-09-08 07:34:50 51°25.976 2°48.474 -999 4.511755 33.368736 -0.781249
2005-09-08 07:34:56 51°25.976 2°48.476 -999 4.511651 33.367877 -0.781249
2005-09-08 07:35:00 51°25.976 2°48.477 -999 4.511651 33.367877 -0.781249
2005-09-08 07:35:05 51°25.976 2°48.478 -999 4.511443 33.366159 -0.781249
2005-09-08 07:35:10 51°25.977 2°48.48 -999 4.511236 33.36507 -0.781249
2005-09-08 07:35:16 51°25.977 2°48.482 -999 4.511132 33.364211 -0.781249
2005-09-08 07:35:20 51°25.977 2°48.483 -999 4.510821 33.362892 -0.781249
2005-09-08 07:35:26 51°25.978 2°48.484 -999 4.510717 33.363291 -0.781249
2005-09-08 07:35:31 51°25.978 2°48.485 -999 4.510509 33.362202 -0.781249
2005-09-08 07:35:36 51°25.978 2°48.486 -999 4.510509 33.362202 -0.781249
2005-09-08 07:35:40 51°25.979 2°48.487 -999 4.510406 33.361343 -0.781249
2005-09-08 07:35:45 51°25.979 2°48.489 -999 4.510406 33.360714 -0.781249
2005-09-08 07:35:49 51°25.98 2°48.489 -999 4.510406 33.361343 -0.781249
2005-09-08 07:35:56 51°25.98 2°48.491 -999 4.510406 33.360714 -0.781249
2005-09-08 07:36:01 51°25.981 2°48.492 -999 4.510406 33.360714 -0.781249
2005-09-08 07:36:06 51°25.982 2°48.492 -999 4.510509 33.360944 -0.781249
2005-09-08 07:36:10 51°25.982 2°48.493 -999 4.510509 33.360315 -0.781249
2005-09-08 07:36:16 51°25.983 2°48.494 -999 4.510509 33.360944 -0.781249
2005-09-08 07:36:20 51°25.983 2°48.495 -999 4.510406 33.361343 -0.781249
2005-09-08 07:36:26 51°25.983 2°48.496 -999 4.510302 33.361742 -0.781249
2005-09-08 07:36:30 51°25.984 2°48.496 -999 4.510302 33.361742 -0.781249
2005-09-08 07:36:35 51°25.985 2°48.497 -999 4.510198 33.362141 -0.781249
2005-09-08 07:36:40 51°25.985 2°48.498 -999 4.510198 33.361512 -0.781249
2005-09-08 07:36:46 51°25.986 2°48.498 -999 4.510198 33.362141 -0.781249
2005-09-08 07:36:50 51°25.986 2°48.498 -999 4.510094 33.361282 -0.781249
2005-09-08 07:36:55 51°25.987 2°48.499 -999 4.510094 33.361911 -0.781249
2005-09-08 07:37:00 51°25.987 2°48.5 -999 4.510094 33.361911 -0.781249
2005-09-08 07:37:06 51°25.988 2°48.5 -999 4.509991 33.361681 -0.781249
2005-09-08 07:37:10 51°25.989 2°48.501 -999 4.509991 33.36231 -0.781249
2005-09-08 07:37:15 51°25.989 2°48.501 -999 4.509887 33.361451 -0.781249
2005-09-08 07:37:20 51°25.989 2°48.501 -999 4.509887 33.361451 -0.74754
2005-09-08 07:37:25 51°25.99 2°48.502 -999 4.509887 33.360822 -0.781249
2005-09-08 07:37:30 51°25.991 2°48.502 -999 4.509887 33.360193 -0.74754
2005-09-08 07:37:36 51°25.991 2°48.502 -999 4.509887 33.360193 -0.74754
2005-09-08 07:37:40 51°25.992 2°48.503 -999 4.509887 33.360193 -0.781249
2005-09-08 07:37:45 51°25.992 2°48.503 -999 4.509783 33.359962 -0.781249
2005-09-08 07:37:50 51°25.993 2°48.503 -999 4.509783 33.359962 -0.781249
2005-09-08 07:37:55 51°25.994 2°48.504 -999 4.509679 33.359103 -0.781249
2005-09-08 07:38:01 51°25.994 2°48.504 -999 4.509679 33.359103 -0.781249
2005-09-08 07:38:05 51°25.995 2°48.504 -999 4.509679 33.359103 -0.781249
2005-09-08 07:38:10 51°25.995 2°48.504 -999 4.509679 33.359732 -0.781249